<?xml version='1.0' encoding='UTF-8'?><gpx version="1.1" creator="JPX - https://github.com/jenetics/jpx" xmlns="http://www.topografix.com/GPX/1/1"><trk><trkseg><trkpt lat="45.052080619901766" lon="9.598573117733553"><ele>59.0</ele><time>2026-03-24T15:00:23.901Z</time></trkpt><trkpt lat="45.052028861870106" lon="9.598517138519881"><ele>59.0</ele><time>2026-03-24T15:00:32Z</time></trkpt><trkpt lat="45.052012193659436" lon="9.598421467888064"><ele>59.0</ele><time>2026-03-24T15:00:38Z</time></trkpt><trkpt lat="45.05204968596366" lon="9.598338825809696"><ele>59.0</ele><time>2026-03-24T15:00:44Z</time></trkpt><trkpt lat="45.052053837207225" lon="9.598238703531646"><ele>59.0</ele><time>2026-03-24T15:00:49Z</time></trkpt><trkpt lat="45.05205124682396" lon="9.598145822500005"><ele>59.0</ele><time>2026-03-24T15:00:54Z</time></trkpt><trkpt lat="45.05205192005495" lon="9.598050124609964"><ele>59.0</ele><time>2026-03-24T15:00:59Z</time></trkpt><trkpt lat="45.05206062630856" lon="9.597946017751054"><ele>59.0</ele><time>2026-03-24T15:01:04Z</time></trkpt><trkpt lat="45.05207220258183" lon="9.597844035096848"><ele>59.0</ele><time>2026-03-24T15:01:09Z</time></trkpt><trkpt lat="45.052052878731466" lon="9.597746104879375"><ele>59.0</ele><time>2026-03-24T15:01:14Z</time></trkpt><trkpt lat="45.052065477483275" lon="9.597647072614357"><ele>59.0</ele><time>2026-03-24T15:01:19Z</time></trkpt><trkpt lat="45.052069444784074" lon="9.597542872130855"><ele>59.0</ele><time>2026-03-24T15:01:24Z</time></trkpt><trkpt lat="45.052064075537146" lon="9.597441979707352"><ele>59.0</ele><time>2026-03-24T15:01:29Z</time></trkpt><trkpt lat="45.05206945675796" lon="9.59734608273145"><ele>59.0</ele><time>2026-03-24T15:01:34Z</time></trkpt><trkpt lat="45.052050031784255" lon="9.597259770248645"><ele>59.0</ele><time>2026-03-24T15:01:39Z</time></trkpt><trkpt lat="45.05205388153997" lon="9.59716084579913"><ele>59.0</ele><time>2026-03-24T15:01:44Z</time></trkpt><trkpt lat="45.0520873699548" lon="9.597069011646257"><ele>59.0</ele><time>2026-03-24T15:01:51Z</time></trkpt><trkpt lat="45.05213843984876" lon="9.597015945103593"><ele>59.0</ele><time>2026-03-24T15:01:56Z</time></trkpt><trkpt lat="45.052207910464496" lon="9.59703966871488"><ele>59.0</ele><time>2026-03-24T15:02:02Z</time></trkpt><trkpt lat="45.05227219662547" lon="9.596988132197955"><ele>59.0</ele><time>2026-03-24T15:02:07Z</time></trkpt><trkpt lat="45.052280250693656" lon="9.596890078702822"><ele>59.0</ele><time>2026-03-24T15:02:11Z</time></trkpt><trkpt lat="45.05226598520175" lon="9.59680153606447"><ele>59.14285714285714</ele><time>2026-03-24T15:02:15Z</time></trkpt><trkpt lat="45.052249444650606" lon="9.596701325794326"><ele>59.28571428571429</ele><time>2026-03-24T15:02:20Z</time></trkpt><trkpt lat="45.05223159272313" lon="9.596603388021533"><ele>59.42857142857143</ele><time>2026-03-24T15:02:25Z</time></trkpt><trkpt lat="45.052211776461895" lon="9.596497873661303"><ele>59.57142857142857</ele><time>2026-03-24T15:02:30Z</time></trkpt><trkpt lat="45.052186382870154" lon="9.596408099298083"><ele>59.71428571428571</ele><time>2026-03-24T15:02:35Z</time></trkpt><trkpt lat="45.05215670904138" lon="9.59632025037471"><ele>59.85714285714286</ele><time>2026-03-24T15:02:40Z</time></trkpt><trkpt lat="45.052116089117476" lon="9.596240141797567"><ele>60.0</ele><time>2026-03-24T15:02:45Z</time></trkpt><trkpt lat="45.05211454843433" lon="9.59614874756034"><ele>60.0</ele><time>2026-03-24T15:02:50Z</time></trkpt><trkpt lat="45.05211022525127" lon="9.596057637111857"><ele>60.0</ele><time>2026-03-24T15:02:55Z</time></trkpt><trkpt lat="45.05210325780206" lon="9.595964323539084"><ele>60.0</ele><time>2026-03-24T15:03:00Z</time></trkpt><trkpt lat="45.05210938564229" lon="9.595864441209347"><ele>60.0</ele><time>2026-03-24T15:03:05Z</time></trkpt><trkpt lat="45.05211700001211" lon="9.595764484556573"><ele>60.0</ele><time>2026-03-24T15:03:10Z</time></trkpt><trkpt lat="45.0521221449854" lon="9.5956700207492"><ele>60.0</ele><time>2026-03-24T15:03:15Z</time></trkpt><trkpt lat="45.05213292280923" lon="9.595578144688785"><ele>60.0</ele><time>2026-03-24T15:03:20Z</time></trkpt><trkpt lat="45.052124125123406" lon="9.595486954693211"><ele>60.0</ele><time>2026-03-24T15:03:24Z</time></trkpt><trkpt lat="45.05210932611431" lon="9.595393967877321"><ele>60.0</ele><time>2026-03-24T15:03:29Z</time></trkpt><trkpt lat="45.052110112532546" lon="9.595298761368607"><ele>60.0</ele><time>2026-03-24T15:03:34Z</time></trkpt><trkpt lat="45.05211347706762" lon="9.595206398558322"><ele>60.0</ele><time>2026-03-24T15:03:39Z</time></trkpt><trkpt lat="45.05211351424734" lon="9.595104316827408"><ele>60.0</ele><time>2026-03-24T15:03:44Z</time></trkpt><trkpt lat="45.05211310126357" lon="9.595011967741659"><ele>60.0</ele><time>2026-03-24T15:03:49Z</time></trkpt><trkpt lat="45.05211284924962" lon="9.594914483474982"><ele>60.0</ele><time>2026-03-24T15:03:54Z</time></trkpt><trkpt lat="45.05209835473722" lon="9.594812400894604"><ele>60.0</ele><time>2026-03-24T15:03:59Z</time></trkpt><trkpt lat="45.05212999828059" lon="9.594720405415906"><ele>60.0</ele><time>2026-03-24T15:04:04Z</time></trkpt><trkpt lat="45.05210288142262" lon="9.59462404520499"><ele>60.0</ele><time>2026-03-24T15:04:09Z</time></trkpt><trkpt lat="45.05210605651491" lon="9.594528467913308"><ele>60.0</ele><time>2026-03-24T15:04:14Z</time></trkpt><trkpt lat="45.05214010987838" lon="9.594448454880064"><ele>60.0</ele><time>2026-03-24T15:04:18Z</time></trkpt><trkpt lat="45.05214724610066" lon="9.594339202063331"><ele>60.0</ele><time>2026-03-24T15:04:23Z</time></trkpt><trkpt lat="45.052146197137255" lon="9.594240647745822"><ele>60.0</ele><time>2026-03-24T15:04:28Z</time></trkpt><trkpt lat="45.052119532566735" lon="9.594143290224544"><ele>59.85714285714286</ele><time>2026-03-24T15:04:33Z</time></trkpt><trkpt lat="45.05213377933916" lon="9.59404819083966"><ele>59.71428571428571</ele><time>2026-03-24T15:04:38Z</time></trkpt><trkpt lat="45.052153289041954" lon="9.593955486342256"><ele>59.57142857142857</ele><time>2026-03-24T15:04:43Z</time></trkpt><trkpt lat="45.05214476819623" lon="9.593851089293535"><ele>59.42857142857143</ele><time>2026-03-24T15:04:48Z</time></trkpt><trkpt lat="45.0521374491775" lon="9.593759702282618"><ele>59.28571428571429</ele><time>2026-03-24T15:04:53Z</time></trkpt><trkpt lat="45.05214050450383" lon="9.593658952314275"><ele>59.14285714285714</ele><time>2026-03-24T15:04:58Z</time></trkpt><trkpt lat="45.0521414154163" lon="9.593562784483609"><ele>59.0</ele><time>2026-03-24T15:05:03Z</time></trkpt><trkpt lat="45.05213599359806" lon="9.593463715955377"><ele>59.0</ele><time>2026-03-24T15:05:08Z</time></trkpt><trkpt lat="45.05214911729602" lon="9.593368049977833"><ele>59.0</ele><time>2026-03-24T15:05:13Z</time></trkpt><trkpt lat="45.05214936304376" lon="9.5932714967159"><ele>59.0</ele><time>2026-03-24T15:05:18Z</time></trkpt><trkpt lat="45.05214978481208" lon="9.593173769337454"><ele>59.0</ele><time>2026-03-24T15:05:23Z</time></trkpt><trkpt lat="45.05214902550742" lon="9.59306882871236"><ele>59.0</ele><time>2026-03-24T15:05:28Z</time></trkpt><trkpt lat="45.05214607576708" lon="9.592968645193997"><ele>59.0</ele><time>2026-03-24T15:05:33Z</time></trkpt><trkpt lat="45.05214527796953" lon="9.592869048878203"><ele>59.0</ele><time>2026-03-24T15:05:38Z</time></trkpt><trkpt lat="45.05214502461491" lon="9.592767900139979"><ele>59.14285714285714</ele><time>2026-03-24T15:05:43Z</time></trkpt><trkpt lat="45.05215378834288" lon="9.592673847105914"><ele>59.28571428571429</ele><time>2026-03-24T15:05:48Z</time></trkpt><trkpt lat="45.05214129257675" lon="9.592574469177263"><ele>59.42857142857143</ele><time>2026-03-24T15:05:53Z</time></trkpt><trkpt lat="45.05213199999275" lon="9.592469586178458"><ele>59.57142857142857</ele><time>2026-03-24T15:05:58Z</time></trkpt><trkpt lat="45.05212667983027" lon="9.592366038880419"><ele>59.71428571428571</ele><time>2026-03-24T15:06:03Z</time></trkpt><trkpt lat="45.0521211727136" lon="9.592267982814143"><ele>59.85714285714286</ele><time>2026-03-24T15:06:08Z</time></trkpt><trkpt lat="45.05210207113538" lon="9.592161656360952"><ele>60.0</ele><time>2026-03-24T15:06:13Z</time></trkpt><trkpt lat="45.05208855550008" lon="9.592069179673082"><ele>60.28571428571429</ele><time>2026-03-24T15:06:18Z</time></trkpt><trkpt lat="45.05208997892674" lon="9.591959780753335"><ele>60.57142857142857</ele><time>2026-03-24T15:06:23Z</time></trkpt><trkpt lat="45.05208068748518" lon="9.59185271288328"><ele>60.85714285714286</ele><time>2026-03-24T15:06:28Z</time></trkpt><trkpt lat="45.052071604624736" lon="9.591746285186595"><ele>61.142857142857146</ele><time>2026-03-24T15:06:33Z</time></trkpt><trkpt lat="45.052060102023894" lon="9.591645329978817"><ele>61.42857142857143</ele><time>2026-03-24T15:06:38Z</time></trkpt><trkpt lat="45.05205646217722" lon="9.591548413640284"><ele>61.714285714285715</ele><time>2026-03-24T15:06:43Z</time></trkpt><trkpt lat="45.05203819087919" lon="9.5914480669813"><ele>62.0</ele><time>2026-03-24T15:06:48Z</time></trkpt><trkpt lat="45.05203596149226" lon="9.591345222456432"><ele>62.0</ele><time>2026-03-24T15:06:53Z</time></trkpt><trkpt lat="45.052020341459624" lon="9.59124717277816"><ele>62.00000000000001</ele><time>2026-03-24T15:06:58Z</time></trkpt><trkpt lat="45.05199680770545" lon="9.591157108291334"><ele>62.0</ele><time>2026-03-24T15:07:03Z</time></trkpt><trkpt lat="45.0519944138216" lon="9.591049510641467"><ele>62.0</ele><time>2026-03-24T15:07:08Z</time></trkpt><trkpt lat="45.05199387876927" lon="9.590941192000798"><ele>62.00000000000001</ele><time>2026-03-24T15:07:13Z</time></trkpt><trkpt lat="45.05197425573632" lon="9.590843490703866"><ele>62.0</ele><time>2026-03-24T15:07:18Z</time></trkpt><trkpt lat="45.05196808057007" lon="9.590739688635397"><ele>62.0</ele><time>2026-03-24T15:07:23Z</time></trkpt><trkpt lat="45.05196515412345" lon="9.590641650263414"><ele>62.0</ele><time>2026-03-24T15:07:28Z</time></trkpt><trkpt lat="45.05195644841654" lon="9.590533822202499"><ele>62.00000000000001</ele><time>2026-03-24T15:07:33Z</time></trkpt><trkpt lat="45.05195858521203" lon="9.590434618480492"><ele>62.0</ele><time>2026-03-24T15:07:38Z</time></trkpt><trkpt lat="45.05194583740801" lon="9.590327829868706"><ele>62.0</ele><time>2026-03-24T15:07:43Z</time></trkpt><trkpt lat="45.05192571015726" lon="9.590234769857826"><ele>62.00000000000001</ele><time>2026-03-24T15:07:48Z</time></trkpt><trkpt lat="45.0519086570612" lon="9.590129864823734"><ele>62.0</ele><time>2026-03-24T15:07:55Z</time></trkpt><trkpt lat="45.0518917442534" lon="9.590033858199"><ele>62.0</ele><time>2026-03-24T15:08:00Z</time></trkpt><trkpt lat="45.051886826615636" lon="9.589931950697107"><ele>61.85714285714286</ele><time>2026-03-24T15:08:05Z</time></trkpt><trkpt lat="45.051876596499724" lon="9.589826488860322"><ele>61.71428571428572</ele><time>2026-03-24T15:08:10Z</time></trkpt><trkpt lat="45.0518672618135" lon="9.589714723902054"><ele>61.57142857142857</ele><time>2026-03-24T15:08:15Z</time></trkpt><trkpt lat="45.05185999067585" lon="9.58961374775604"><ele>61.42857142857143</ele><time>2026-03-24T15:08:20Z</time></trkpt><trkpt lat="45.05185643324097" lon="9.58952431289296"><ele>61.285714285714285</ele><time>2026-03-24T15:08:24Z</time></trkpt><trkpt lat="45.05184328340458" lon="9.589432807717523"><ele>61.14285714285714</ele><time>2026-03-24T15:08:29Z</time></trkpt><trkpt lat="45.05183803962853" lon="9.589330107740656"><ele>60.99999999999999</ele><time>2026-03-24T15:08:34Z</time></trkpt><trkpt lat="45.05180797149437" lon="9.589243767397681"><ele>60.99999999999999</ele><time>2026-03-24T15:08:37.999Z</time></trkpt><trkpt lat="45.05177431131903" lon="9.58915094774713"><ele>61.0</ele><time>2026-03-24T15:08:42.999Z</time></trkpt><trkpt lat="45.05173653356064" lon="9.589064348840965"><ele>60.99999999999999</ele><time>2026-03-24T15:08:47.999Z</time></trkpt><trkpt lat="45.05170390538237" lon="9.588970839271592"><ele>60.99999999999999</ele><time>2026-03-24T15:08:52.999Z</time></trkpt><trkpt lat="45.0516593480432" lon="9.588898312157411"><ele>61.0</ele><time>2026-03-24T15:08:57Z</time></trkpt><trkpt lat="45.05163458007274" lon="9.588811555248018"><ele>60.99999999999999</ele><time>2026-03-24T15:09:02Z</time></trkpt><trkpt lat="45.05160538228248" lon="9.58872037257078"><ele>60.99999999999999</ele><time>2026-03-24T15:09:07Z</time></trkpt><trkpt lat="45.05155384790323" lon="9.588647753955545"><ele>61.28571428571428</ele><time>2026-03-24T15:09:12Z</time></trkpt><trkpt lat="45.051498832426915" lon="9.58858383743355"><ele>61.57142857142857</ele><time>2026-03-24T15:09:17Z</time></trkpt><trkpt lat="45.051445058909096" lon="9.588515089087458"><ele>61.857142857142854</ele><time>2026-03-24T15:09:22Z</time></trkpt><trkpt lat="45.05139095460053" lon="9.588447014683402"><ele>62.14285714285714</ele><time>2026-03-24T15:09:27Z</time></trkpt><trkpt lat="45.051341188339094" lon="9.588378547148196"><ele>62.42857142857143</ele><time>2026-03-24T15:09:32Z</time></trkpt><trkpt lat="45.05129427640715" lon="9.588315521757561"><ele>62.714285714285715</ele><time>2026-03-24T15:09:38Z</time></trkpt><trkpt lat="45.05124400680461" lon="9.588232717968033"><ele>63.0</ele><time>2026-03-24T15:09:44Z</time></trkpt><trkpt lat="45.05119551086254" lon="9.588163962940284"><ele>63.0</ele><time>2026-03-24T15:09:49Z</time></trkpt><trkpt lat="45.05113916184253" lon="9.588100569899664"><ele>63.0</ele><time>2026-03-24T15:09:54Z</time></trkpt><trkpt lat="45.05108899158863" lon="9.58802571720015"><ele>63.0</ele><time>2026-03-24T15:09:59Z</time></trkpt><trkpt lat="45.05103853535525" lon="9.587967092095035"><ele>63.0</ele><time>2026-03-24T15:10:04Z</time></trkpt><trkpt lat="45.0509816283912" lon="9.58789217728207"><ele>63.0</ele><time>2026-03-24T15:10:09Z</time></trkpt><trkpt lat="45.05092712366626" lon="9.587810789383315"><ele>63.0</ele><time>2026-03-24T15:10:14.999Z</time></trkpt><trkpt lat="45.05087996760938" lon="9.587748125869181"><ele>63.0</ele><time>2026-03-24T15:10:19.999Z</time></trkpt><trkpt lat="45.050825467969865" lon="9.587682490832561"><ele>62.85714285714286</ele><time>2026-03-24T15:10:24.999Z</time></trkpt><trkpt lat="45.05077100307866" lon="9.587604994555567"><ele>62.714285714285715</ele><time>2026-03-24T15:10:29.999Z</time></trkpt><trkpt lat="45.050719934099924" lon="9.587536602227722"><ele>62.57142857142857</ele><time>2026-03-24T15:10:35.999Z</time></trkpt><trkpt lat="45.050670718723175" lon="9.587473949609084"><ele>62.42857142857143</ele><time>2026-03-24T15:10:40.999Z</time></trkpt><trkpt lat="45.050629581290636" lon="9.587391038238549"><ele>62.28571428571429</ele><time>2026-03-24T15:10:44.999Z</time></trkpt><trkpt lat="45.05057845317069" lon="9.58732815027317"><ele>62.142857142857146</ele><time>2026-03-24T15:10:48.999Z</time></trkpt><trkpt lat="45.05054043851423" lon="9.58725699719981"><ele>62.0</ele><time>2026-03-24T15:10:52.999Z</time></trkpt><trkpt lat="45.05048323838616" lon="9.587182425129187"><ele>62.0</ele><time>2026-03-24T15:10:57.999Z</time></trkpt><trkpt lat="45.05043729635263" lon="9.587116599831763"><ele>62.00000000000001</ele><time>2026-03-24T15:11:02.998Z</time></trkpt><trkpt lat="45.05038465336475" lon="9.587045820361324"><ele>62.0</ele><time>2026-03-24T15:11:07.998Z</time></trkpt><trkpt lat="45.05032610086184" lon="9.586978305820702"><ele>62.0</ele><time>2026-03-24T15:11:12.999Z</time></trkpt><trkpt lat="45.05027310730551" lon="9.586909936078916"><ele>62.00000000000001</ele><time>2026-03-24T15:11:17.999Z</time></trkpt><trkpt lat="45.050226184157935" lon="9.586843469232974"><ele>62.0</ele><time>2026-03-24T15:11:21.999Z</time></trkpt><trkpt lat="45.05018690256137" lon="9.586767635108746"><ele>62.0</ele><time>2026-03-24T15:11:26.999Z</time></trkpt><trkpt lat="45.050142602261715" lon="9.586703051025019"><ele>61.85714285714286</ele><time>2026-03-24T15:11:30.999Z</time></trkpt><trkpt lat="45.05008268744884" lon="9.586641122267856"><ele>61.71428571428572</ele><time>2026-03-24T15:11:35.999Z</time></trkpt><trkpt lat="45.0500359577834" lon="9.586573053696087"><ele>61.57142857142857</ele><time>2026-03-24T15:11:39.999Z</time></trkpt><trkpt lat="45.049984575719634" lon="9.58650372018988"><ele>61.42857142857143</ele><time>2026-03-24T15:11:44.999Z</time></trkpt><trkpt lat="45.04992672378417" lon="9.586430270129885"><ele>61.285714285714285</ele><time>2026-03-24T15:11:49.999Z</time></trkpt><trkpt lat="45.04987198643048" lon="9.586376814307123"><ele>61.14285714285714</ele><time>2026-03-24T15:11:53.999Z</time></trkpt><trkpt lat="45.04982037612344" lon="9.586305856258328"><ele>60.99999999999999</ele><time>2026-03-24T15:11:58.999Z</time></trkpt><trkpt lat="45.04978004434855" lon="9.586235994126158"><ele>61.14285714285714</ele><time>2026-03-24T15:12:03.999Z</time></trkpt><trkpt lat="45.049729851763175" lon="9.586171976372539"><ele>61.285714285714285</ele><time>2026-03-24T15:12:08.999Z</time></trkpt><trkpt lat="45.04968165858475" lon="9.586107764757559"><ele>61.42857142857143</ele><time>2026-03-24T15:12:13.999Z</time></trkpt><trkpt lat="45.04963935031027" lon="9.586039845167317"><ele>61.57142857142857</ele><time>2026-03-24T15:12:17.999Z</time></trkpt><trkpt lat="45.04958699871982" lon="9.585964166927267"><ele>61.71428571428572</ele><time>2026-03-24T15:12:22.999Z</time></trkpt><trkpt lat="45.04955814235923" lon="9.58587919334563"><ele>61.85714285714286</ele><time>2026-03-24T15:12:27.999Z</time></trkpt><trkpt lat="45.04953468652078" lon="9.58578296864073"><ele>62.0</ele><time>2026-03-24T15:12:32.999Z</time></trkpt><trkpt lat="45.04949623305949" lon="9.58569611258215"><ele>62.0</ele><time>2026-03-24T15:12:37.999Z</time></trkpt><trkpt lat="45.049449735176445" lon="9.585617381903417"><ele>62.00000000000001</ele><time>2026-03-24T15:12:42.999Z</time></trkpt><trkpt lat="45.04941864038574" lon="9.585521704506803"><ele>62.0</ele><time>2026-03-24T15:12:47.999Z</time></trkpt><trkpt lat="45.04936919948491" lon="9.58546043684887"><ele>62.0</ele><time>2026-03-24T15:12:51.999Z</time></trkpt><trkpt lat="45.049320577132114" lon="9.585375713513962"><ele>62.00000000000001</ele><time>2026-03-24T15:12:56.999Z</time></trkpt><trkpt lat="45.04929536098468" lon="9.5852912935847"><ele>62.0</ele><time>2026-03-24T15:13:00.999Z</time></trkpt><trkpt lat="45.04925343459521" lon="9.585205471982217"><ele>62.0</ele><time>2026-03-24T15:13:06Z</time></trkpt><trkpt lat="45.049214926849565" lon="9.58511282014479"><ele>62.0</ele><time>2026-03-24T15:13:11Z</time></trkpt><trkpt lat="45.04917814659635" lon="9.585020181580742"><ele>62.00000000000001</ele><time>2026-03-24T15:13:16Z</time></trkpt><trkpt lat="45.049138483465924" lon="9.584935148991871"><ele>62.0</ele><time>2026-03-24T15:13:21Z</time></trkpt><trkpt lat="45.049106185121076" lon="9.584844612498244"><ele>62.0</ele><time>2026-03-24T15:13:26Z</time></trkpt><trkpt lat="45.04906382619118" lon="9.584763254369031"><ele>62.00000000000001</ele><time>2026-03-24T15:13:31Z</time></trkpt><trkpt lat="45.04902658477979" lon="9.584689003633216"><ele>62.0</ele><time>2026-03-24T15:13:35Z</time></trkpt><trkpt lat="45.04899401258471" lon="9.584594024832123"><ele>62.0</ele><time>2026-03-24T15:13:40Z</time></trkpt><trkpt lat="45.04897846527147" lon="9.58449591207525"><ele>62.0</ele><time>2026-03-24T15:13:45Z</time></trkpt><trkpt lat="45.04893373956948" lon="9.584432191676079"><ele>62.00000000000001</ele><time>2026-03-24T15:13:49Z</time></trkpt><trkpt lat="45.04890385875866" lon="9.584347350790386"><ele>62.0</ele><time>2026-03-24T15:13:53Z</time></trkpt><trkpt lat="45.04885673705699" lon="9.584265904670781"><ele>62.0</ele><time>2026-03-24T15:13:58Z</time></trkpt><trkpt lat="45.048823993179056" lon="9.584178275089172"><ele>62.00000000000001</ele><time>2026-03-24T15:14:03Z</time></trkpt><trkpt lat="45.04878048121423" lon="9.584108044544143"><ele>62.0</ele><time>2026-03-24T15:14:07Z</time></trkpt><trkpt lat="45.04875642107387" lon="9.584012131420527"><ele>62.0</ele><time>2026-03-24T15:14:12Z</time></trkpt><trkpt lat="45.04873679511245" lon="9.583926570080049"><ele>62.0</ele><time>2026-03-24T15:14:17Z</time></trkpt><trkpt lat="45.04869304002302" lon="9.58385932859819"><ele>62.00000000000001</ele><time>2026-03-24T15:14:21Z</time></trkpt><trkpt lat="45.0486551883427" lon="9.583786774992568"><ele>62.0</ele><time>2026-03-24T15:14:25Z</time></trkpt><trkpt lat="45.04861811788869" lon="9.583700139499008"><ele>62.0</ele><time>2026-03-24T15:14:30Z</time></trkpt><trkpt lat="45.04858615603022" lon="9.583620710304185"><ele>62.00000000000001</ele><time>2026-03-24T15:14:34Z</time></trkpt><trkpt lat="45.0485434081005" lon="9.583553647107653"><ele>62.0</ele><time>2026-03-24T15:14:39Z</time></trkpt><trkpt lat="45.04850847560001" lon="9.58346918342304"><ele>62.0</ele><time>2026-03-24T15:14:44Z</time></trkpt><trkpt lat="45.04847788401072" lon="9.583387299382913"><ele>62.0</ele><time>2026-03-24T15:14:49Z</time></trkpt><trkpt lat="45.04844571908142" lon="9.583307933475615"><ele>62.00000000000001</ele><time>2026-03-24T15:14:54Z</time></trkpt><trkpt lat="45.04840920053411" lon="9.583227737566773"><ele>62.0</ele><time>2026-03-24T15:14:59Z</time></trkpt><trkpt lat="45.04837118924503" lon="9.583142749170834"><ele>62.0</ele><time>2026-03-24T15:15:04Z</time></trkpt><trkpt lat="45.048338350769825" lon="9.583056020864756"><ele>62.00000000000001</ele><time>2026-03-24T15:15:09Z</time></trkpt><trkpt lat="45.04830688815698" lon="9.582967940652724"><ele>62.0</ele><time>2026-03-24T15:15:14Z</time></trkpt><trkpt lat="45.048273627835435" lon="9.582878951829752"><ele>62.0</ele><time>2026-03-24T15:15:19Z</time></trkpt><trkpt lat="45.048243634261745" lon="9.582797789782322"><ele>62.142857142857146</ele><time>2026-03-24T15:15:24Z</time></trkpt><trkpt lat="45.04820548380442" lon="9.582710606092688"><ele>62.28571428571429</ele><time>2026-03-24T15:15:29Z</time></trkpt><trkpt lat="45.04817649014943" lon="9.58262607295948"><ele>62.42857142857143</ele><time>2026-03-24T15:15:34Z</time></trkpt><trkpt lat="45.04813747986057" lon="9.582534857511803"><ele>62.57142857142857</ele><time>2026-03-24T15:15:39Z</time></trkpt><trkpt lat="45.04809926518252" lon="9.58245813942126"><ele>62.714285714285715</ele><time>2026-03-24T15:15:44Z</time></trkpt><trkpt lat="45.04806533074418" lon="9.582367322910027"><ele>62.85714285714286</ele><time>2026-03-24T15:15:49Z</time></trkpt><trkpt lat="45.04803572746638" lon="9.582286505470428"><ele>63.0</ele><time>2026-03-24T15:15:54Z</time></trkpt><trkpt lat="45.04799421295698" lon="9.58221040743707"><ele>63.0</ele><time>2026-03-24T15:15:58Z</time></trkpt><trkpt lat="45.04796674092663" lon="9.582122363336438"><ele>63.0</ele><time>2026-03-24T15:16:04Z</time></trkpt><trkpt lat="45.047926767948944" lon="9.582028296426998"><ele>63.0</ele><time>2026-03-24T15:16:09Z</time></trkpt><trkpt lat="45.0478893175474" lon="9.581936438820202"><ele>63.0</ele><time>2026-03-24T15:16:14Z</time></trkpt><trkpt lat="45.04784627390651" lon="9.581848503772159"><ele>63.0</ele><time>2026-03-24T15:16:19Z</time></trkpt><trkpt lat="45.04783704538696" lon="9.581760262004966"><ele>63.0</ele><time>2026-03-24T15:16:23Z</time></trkpt><trkpt lat="45.04779980507866" lon="9.581684110602882"><ele>63.0</ele><time>2026-03-24T15:16:27Z</time></trkpt><trkpt lat="45.04776496332055" lon="9.581608730942014"><ele>63.0</ele><time>2026-03-24T15:16:31Z</time></trkpt><trkpt lat="45.047721619510355" lon="9.58152201926422"><ele>63.0</ele><time>2026-03-24T15:16:36Z</time></trkpt><trkpt lat="45.04770026489728" lon="9.581426013086311"><ele>63.0</ele><time>2026-03-24T15:16:41Z</time></trkpt><trkpt lat="45.0476844702873" lon="9.58133826061729"><ele>63.0</ele><time>2026-03-24T15:16:46Z</time></trkpt><trkpt lat="45.04765258910512" lon="9.581256236433227"><ele>63.0</ele><time>2026-03-24T15:16:50Z</time></trkpt><trkpt lat="45.04761771384587" lon="9.581180327683596"><ele>63.0</ele><time>2026-03-24T15:16:54Z</time></trkpt><trkpt lat="45.04759207280627" lon="9.58109552250072"><ele>63.0</ele><time>2026-03-24T15:16:58Z</time></trkpt><trkpt lat="45.04754069515358" lon="9.581038082234743"><ele>63.0</ele><time>2026-03-24T15:17:02Z</time></trkpt><trkpt lat="45.04751183394659" lon="9.58093528105174"><ele>63.0</ele><time>2026-03-24T15:17:07Z</time></trkpt><trkpt lat="45.04746577959344" lon="9.580859041622633"><ele>63.0</ele><time>2026-03-24T15:17:12Z</time></trkpt><trkpt lat="45.047435799863436" lon="9.5807793318634"><ele>63.0</ele><time>2026-03-24T15:17:16Z</time></trkpt><trkpt lat="45.04738988335328" lon="9.580699561033265"><ele>63.0</ele><time>2026-03-24T15:17:21Z</time></trkpt><trkpt lat="45.047353790183095" lon="9.580609181093095"><ele>63.0</ele><time>2026-03-24T15:17:26Z</time></trkpt><trkpt lat="45.0473134681711" lon="9.580515134530566"><ele>63.0</ele><time>2026-03-24T15:17:31Z</time></trkpt><trkpt lat="45.04726456489616" lon="9.580433503214882"><ele>63.0</ele><time>2026-03-24T15:17:36Z</time></trkpt><trkpt lat="45.0472281065378" lon="9.580350465835668"><ele>63.0</ele><time>2026-03-24T15:17:41Z</time></trkpt><trkpt lat="45.04721159776902" lon="9.58025487575625"><ele>63.0</ele><time>2026-03-24T15:17:46Z</time></trkpt><trkpt lat="45.04718217907625" lon="9.580160788885669"><ele>63.0</ele><time>2026-03-24T15:17:51Z</time></trkpt><trkpt lat="45.04715241603069" lon="9.580067958639901"><ele>63.0</ele><time>2026-03-24T15:17:56Z</time></trkpt><trkpt lat="45.047097630320955" lon="9.579989348294758"><ele>63.0</ele><time>2026-03-24T15:18:01Z</time></trkpt><trkpt lat="45.04705792930666" lon="9.57989987771464"><ele>63.0</ele><time>2026-03-24T15:18:06Z</time></trkpt><trkpt lat="45.0470298895475" lon="9.579816265695705"><ele>62.85714285714286</ele><time>2026-03-24T15:18:10Z</time></trkpt><trkpt lat="45.047006006291966" lon="9.579732615761012"><ele>62.714285714285715</ele><time>2026-03-24T15:18:14Z</time></trkpt><trkpt lat="45.04697707929551" lon="9.57963039673393"><ele>62.57142857142857</ele><time>2026-03-24T15:18:19Z</time></trkpt><trkpt lat="45.046947151076374" lon="9.579551746646294"><ele>62.42857142857143</ele><time>2026-03-24T15:18:23Z</time></trkpt><trkpt lat="45.04690763682109" lon="9.57948099432097"><ele>62.28571428571429</ele><time>2026-03-24T15:18:27Z</time></trkpt><trkpt lat="45.04687960278829" lon="9.57940006176032"><ele>62.142857142857146</ele><time>2026-03-24T15:18:31Z</time></trkpt><trkpt lat="45.046837942832525" lon="9.579311218586975"><ele>62.0</ele><time>2026-03-24T15:18:36Z</time></trkpt><trkpt lat="45.04679557847829" lon="9.579218585184782"><ele>62.0</ele><time>2026-03-24T15:18:41Z</time></trkpt><trkpt lat="45.04676822059364" lon="9.579117009337708"><ele>62.00000000000001</ele><time>2026-03-24T15:18:46Z</time></trkpt><trkpt lat="45.04674392526125" lon="9.579014323867428"><ele>62.0</ele><time>2026-03-24T15:18:51Z</time></trkpt><trkpt lat="45.04669676988204" lon="9.578931633102822"><ele>62.0</ele><time>2026-03-24T15:18:56Z</time></trkpt><trkpt lat="45.046675347358835" lon="9.57884520071743"><ele>62.00000000000001</ele><time>2026-03-24T15:19:00Z</time></trkpt><trkpt lat="45.04663291591653" lon="9.578773714618137"><ele>62.0</ele><time>2026-03-24T15:19:04Z</time></trkpt><trkpt lat="45.04657970234011" lon="9.57870207143211"><ele>62.0</ele><time>2026-03-24T15:19:09Z</time></trkpt><trkpt lat="45.046551680167404" lon="9.578612704873196"><ele>62.0</ele><time>2026-03-24T15:19:14Z</time></trkpt><trkpt lat="45.046528132143855" lon="9.578526688081768"><ele>62.00000000000001</ele><time>2026-03-24T15:19:18Z</time></trkpt><trkpt lat="45.04650741099048" lon="9.578429810787162"><ele>62.0</ele><time>2026-03-24T15:19:23Z</time></trkpt><trkpt lat="45.04647705643126" lon="9.578330976011163"><ele>62.0</ele><time>2026-03-24T15:19:28Z</time></trkpt><trkpt lat="45.04644824924802" lon="9.578249079519141"><ele>62.00000000000001</ele><time>2026-03-24T15:19:32Z</time></trkpt><trkpt lat="45.04639754726969" lon="9.578166058808144"><ele>62.0</ele><time>2026-03-24T15:19:37Z</time></trkpt><trkpt lat="45.04636047312958" lon="9.578070985486008"><ele>62.0</ele><time>2026-03-24T15:19:42Z</time></trkpt><trkpt lat="45.046347359717515" lon="9.577968149315241"><ele>62.0</ele><time>2026-03-24T15:19:47Z</time></trkpt><trkpt lat="45.04631473008234" lon="9.577882572172381"><ele>62.00000000000001</ele><time>2026-03-24T15:19:52Z</time></trkpt><trkpt lat="45.046285529792975" lon="9.577786933952556"><ele>62.0</ele><time>2026-03-24T15:19:57Z</time></trkpt><trkpt lat="45.04625492298977" lon="9.577700203089407"><ele>62.0</ele><time>2026-03-24T15:20:02Z</time></trkpt><trkpt lat="45.04622368707798" lon="9.577607048299534"><ele>62.00000000000001</ele><time>2026-03-24T15:20:07Z</time></trkpt><trkpt lat="45.04620035705594" lon="9.577519717594983"><ele>62.0</ele><time>2026-03-24T15:20:12Z</time></trkpt><trkpt lat="45.046171133749056" lon="9.577426540322616"><ele>62.0</ele><time>2026-03-24T15:20:17Z</time></trkpt><trkpt lat="45.0461445794702" lon="9.577333535728537"><ele>62.0</ele><time>2026-03-24T15:20:22Z</time></trkpt><trkpt lat="45.046113961381444" lon="9.577248813149897"><ele>62.00000000000001</ele><time>2026-03-24T15:20:26Z</time></trkpt><trkpt lat="45.04608998321072" lon="9.577161946750206"><ele>62.0</ele><time>2026-03-24T15:20:30Z</time></trkpt><trkpt lat="45.04604732964109" lon="9.577083103307087"><ele>62.0</ele><time>2026-03-24T15:20:34Z</time></trkpt><trkpt lat="45.04601793138209" lon="9.5769994769749"><ele>62.00000000000001</ele><time>2026-03-24T15:20:38Z</time></trkpt><trkpt lat="45.04599143511161" lon="9.576913482956762"><ele>62.0</ele><time>2026-03-24T15:20:43Z</time></trkpt><trkpt lat="45.04596128915551" lon="9.576821428328488"><ele>62.0</ele><time>2026-03-24T15:20:48Z</time></trkpt><trkpt lat="45.04592998583656" lon="9.576739206148968"><ele>62.0</ele><time>2026-03-24T15:20:53Z</time></trkpt><trkpt lat="45.045899061997574" lon="9.57664554612658"><ele>62.00000000000001</ele><time>2026-03-24T15:20:58Z</time></trkpt><trkpt lat="45.04587610760375" lon="9.576550718630134"><ele>62.0</ele><time>2026-03-24T15:21:02Z</time></trkpt><trkpt lat="45.04585273683288" lon="9.576456544271718"><ele>62.0</ele><time>2026-03-24T15:21:07Z</time></trkpt><trkpt lat="45.0458289725306" lon="9.576356069732388"><ele>62.00000000000001</ele><time>2026-03-24T15:21:12Z</time></trkpt><trkpt lat="45.04580608547741" lon="9.576259043718837"><ele>62.0</ele><time>2026-03-24T15:21:17Z</time></trkpt><trkpt lat="45.045773676556216" lon="9.576178247872473"><ele>62.0</ele><time>2026-03-24T15:21:21Z</time></trkpt><trkpt lat="45.04574143614487" lon="9.576093152147289"><ele>62.142857142857146</ele><time>2026-03-24T15:21:26Z</time></trkpt><trkpt lat="45.04571332213686" lon="9.576006613313002"><ele>62.28571428571429</ele><time>2026-03-24T15:21:29.999Z</time></trkpt><trkpt lat="45.04568398417537" lon="9.575912656225743"><ele>62.42857142857143</ele><time>2026-03-24T15:21:34.999Z</time></trkpt><trkpt lat="45.04565380862773" lon="9.575817080532442"><ele>62.57142857142857</ele><time>2026-03-24T15:21:40Z</time></trkpt><trkpt lat="45.04563074528381" lon="9.57572674799463"><ele>62.714285714285715</ele><time>2026-03-24T15:21:45Z</time></trkpt><trkpt lat="45.0456072139785" lon="9.575626225585628"><ele>62.85714285714286</ele><time>2026-03-24T15:21:50Z</time></trkpt><trkpt lat="45.04558105589647" lon="9.57552556845637"><ele>63.0</ele><time>2026-03-24T15:21:55Z</time></trkpt><trkpt lat="45.04553672994798" lon="9.575445150521107"><ele>63.14285714285714</ele><time>2026-03-24T15:21:59Z</time></trkpt><trkpt lat="45.0455093630613" lon="9.575347604608213"><ele>63.285714285714285</ele><time>2026-03-24T15:22:04Z</time></trkpt><trkpt lat="45.04548100523952" lon="9.575264023480795"><ele>63.42857142857143</ele><time>2026-03-24T15:22:09Z</time></trkpt><trkpt lat="45.04545165954899" lon="9.575185134840506"><ele>63.57142857142857</ele><time>2026-03-24T15:22:13Z</time></trkpt><trkpt lat="45.045426168898985" lon="9.575089639028828"><ele>63.71428571428571</ele><time>2026-03-24T15:22:18Z</time></trkpt><trkpt lat="45.045392406100824" lon="9.575010200065776"><ele>63.857142857142854</ele><time>2026-03-24T15:22:22Z</time></trkpt><trkpt lat="45.045355385279656" lon="9.574918594851892"><ele>64.0</ele><time>2026-03-24T15:22:27Z</time></trkpt><trkpt lat="45.04532118584044" lon="9.574836246248847"><ele>64.0</ele><time>2026-03-24T15:22:31Z</time></trkpt><trkpt lat="45.045308484836795" lon="9.5747463903009"><ele>63.99999999999999</ele><time>2026-03-24T15:22:36Z</time></trkpt><trkpt lat="45.04528901386254" lon="9.574639628634271"><ele>64.0</ele><time>2026-03-24T15:22:41Z</time></trkpt><trkpt lat="45.04525791821646" lon="9.574541100326943"><ele>64.0</ele><time>2026-03-24T15:22:46Z</time></trkpt><trkpt lat="45.04521993484877" lon="9.574450063866704"><ele>63.99999999999999</ele><time>2026-03-24T15:22:51Z</time></trkpt><trkpt lat="45.04518541864855" lon="9.574353243355423"><ele>64.0</ele><time>2026-03-24T15:22:56Z</time></trkpt><trkpt lat="45.04516529236118" lon="9.574255956217606"><ele>64.0</ele><time>2026-03-24T15:23:01Z</time></trkpt><trkpt lat="45.045144311800044" lon="9.574159787530077"><ele>63.857142857142854</ele><time>2026-03-24T15:23:06Z</time></trkpt><trkpt lat="45.04511952154816" lon="9.574048735574207"><ele>63.71428571428571</ele><time>2026-03-24T15:23:11Z</time></trkpt><trkpt lat="45.04507905049389" lon="9.573960021131859"><ele>63.57142857142857</ele><time>2026-03-24T15:23:16Z</time></trkpt><trkpt lat="45.04504172285455" lon="9.573887680027065"><ele>63.42857142857143</ele><time>2026-03-24T15:23:20Z</time></trkpt><trkpt lat="45.04502012374963" lon="9.573789153347237"><ele>63.285714285714285</ele><time>2026-03-24T15:23:26Z</time></trkpt><trkpt lat="45.044983377982206" lon="9.573698064119958"><ele>63.14285714285714</ele><time>2026-03-24T15:23:31Z</time></trkpt><trkpt lat="45.04493981853875" lon="9.573624306678287"><ele>63.0</ele><time>2026-03-24T15:23:35Z</time></trkpt><trkpt lat="45.04490348076002" lon="9.573531754814644"><ele>63.0</ele><time>2026-03-24T15:23:40Z</time></trkpt><trkpt lat="45.044870472570715" lon="9.573455561878527"><ele>63.0</ele><time>2026-03-24T15:23:44Z</time></trkpt><trkpt lat="45.04483838047647" lon="9.573375662020648"><ele>63.0</ele><time>2026-03-24T15:23:48Z</time></trkpt><trkpt lat="45.044804711929665" lon="9.573280826484652"><ele>63.0</ele><time>2026-03-24T15:23:53Z</time></trkpt><trkpt lat="45.044778610813836" lon="9.573188828175457"><ele>63.0</ele><time>2026-03-24T15:23:58Z</time></trkpt><trkpt lat="45.04475200052305" lon="9.573098111623997"><ele>63.0</ele><time>2026-03-24T15:24:03Z</time></trkpt><trkpt lat="45.0447337964839" lon="9.572996555251665"><ele>63.0</ele><time>2026-03-24T15:24:08Z</time></trkpt><trkpt lat="45.044709533729346" lon="9.572897609428399"><ele>63.0</ele><time>2026-03-24T15:24:13Z</time></trkpt><trkpt lat="45.044692122255114" lon="9.572804008526235"><ele>63.0</ele><time>2026-03-24T15:24:17Z</time></trkpt><trkpt lat="45.04467547711799" lon="9.572715504287592"><ele>63.0</ele><time>2026-03-24T15:24:21Z</time></trkpt><trkpt lat="45.0446660239703" lon="9.572626905072521"><ele>63.0</ele><time>2026-03-24T15:24:26Z</time></trkpt><trkpt lat="45.0446705003253" lon="9.572523836466464"><ele>63.0</ele><time>2026-03-24T15:24:31Z</time></trkpt><trkpt lat="45.04468148820237" lon="9.572430803599147"><ele>63.0</ele><time>2026-03-24T15:24:36Z</time></trkpt><trkpt lat="45.04469488449792" lon="9.57233151310675"><ele>63.0</ele><time>2026-03-24T15:24:41Z</time></trkpt><trkpt lat="45.04470571785903" lon="9.5722380006619"><ele>63.0</ele><time>2026-03-24T15:24:46Z</time></trkpt><trkpt lat="45.04473005214014" lon="9.572136781104742"><ele>63.0</ele><time>2026-03-24T15:24:51Z</time></trkpt><trkpt lat="45.044734534953434" lon="9.572034176472714"><ele>63.0</ele><time>2026-03-24T15:24:56Z</time></trkpt><trkpt lat="45.04473843086944" lon="9.571927572512168"><ele>63.0</ele><time>2026-03-24T15:25:01Z</time></trkpt><trkpt lat="45.0447640654962" lon="9.571829445890376"><ele>63.0</ele><time>2026-03-24T15:25:06Z</time></trkpt><trkpt lat="45.04478511638863" lon="9.571723346248504"><ele>63.0</ele><time>2026-03-24T15:25:11Z</time></trkpt><trkpt lat="45.04478473365366" lon="9.571630775730167"><ele>63.0</ele><time>2026-03-24T15:25:15Z</time></trkpt><trkpt lat="45.04478208192741" lon="9.571540873435966"><ele>63.0</ele><time>2026-03-24T15:25:19Z</time></trkpt><trkpt lat="45.044786394804504" lon="9.571450958719021"><ele>63.0</ele><time>2026-03-24T15:25:23Z</time></trkpt><trkpt lat="45.044782148665206" lon="9.571346556458447"><ele>63.0</ele><time>2026-03-24T15:25:28Z</time></trkpt><trkpt lat="45.04477460710612" lon="9.57125264001163"><ele>63.0</ele><time>2026-03-24T15:25:32Z</time></trkpt><trkpt lat="45.04473337953822" lon="9.571181875748689"><ele>63.0</ele><time>2026-03-24T15:25:36Z</time></trkpt><trkpt lat="45.044719385461974" lon="9.57107561934032"><ele>63.0</ele><time>2026-03-24T15:25:41Z</time></trkpt><trkpt lat="45.044679919914365" lon="9.570995845576716"><ele>63.0</ele><time>2026-03-24T15:25:44.998Z</time></trkpt><trkpt lat="45.044633524110196" lon="9.57093401779153"><ele>63.14285714285714</ele><time>2026-03-24T15:25:48.998Z</time></trkpt><trkpt lat="45.04458356897458" lon="9.570855424000037"><ele>63.285714285714285</ele><time>2026-03-24T15:25:53.998Z</time></trkpt><trkpt lat="45.04453602123561" lon="9.570766830771317"><ele>63.42857142857143</ele><time>2026-03-24T15:25:58.999Z</time></trkpt><trkpt lat="45.04450038170274" lon="9.570691389539684"><ele>63.57142857142857</ele><time>2026-03-24T15:26:02.999Z</time></trkpt><trkpt lat="45.0444559806753" lon="9.570604295093668"><ele>63.71428571428571</ele><time>2026-03-24T15:26:07.999Z</time></trkpt><trkpt lat="45.04441213447762" lon="9.570536483353743"><ele>63.857142857142854</ele><time>2026-03-24T15:26:11.999Z</time></trkpt><trkpt lat="45.04438234264293" lon="9.570456440358754"><ele>64.0</ele><time>2026-03-24T15:26:15.999Z</time></trkpt><trkpt lat="45.04435259754727" lon="9.57037332322854"><ele>64.0</ele><time>2026-03-24T15:26:19.999Z</time></trkpt><trkpt lat="45.0443005829377" lon="9.570310203824237"><ele>63.99999999999999</ele><time>2026-03-24T15:26:23.999Z</time></trkpt><trkpt lat="45.04425911349519" lon="9.570234078600567"><ele>64.0</ele><time>2026-03-24T15:26:27.999Z</time></trkpt><trkpt lat="45.04421878093237" lon="9.57014019261535"><ele>64.0</ele><time>2026-03-24T15:26:33.999Z</time></trkpt><trkpt lat="45.04418302470807" lon="9.570065461999754"><ele>63.99999999999999</ele><time>2026-03-24T15:26:37.999Z</time></trkpt><trkpt lat="45.044130739101064" lon="9.570004297094407"><ele>64.0</ele><time>2026-03-24T15:26:41.999Z</time></trkpt><trkpt lat="45.04408992120013" lon="9.56993571556019"><ele>64.0</ele><time>2026-03-24T15:26:45.999Z</time></trkpt><trkpt lat="45.04405413544861" lon="9.569853339525324"><ele>63.857142857142854</ele><time>2026-03-24T15:26:50.999Z</time></trkpt><trkpt lat="45.044012362950376" lon="9.569782303493001"><ele>63.71428571428571</ele><time>2026-03-24T15:26:54.999Z</time></trkpt><trkpt lat="45.04398200516126" lon="9.569694121015802"><ele>63.57142857142857</ele><time>2026-03-24T15:26:58.999Z</time></trkpt><trkpt lat="45.043944696029705" lon="9.569617914938283"><ele>63.42857142857143</ele><time>2026-03-24T15:27:03Z</time></trkpt><trkpt lat="45.04390635364982" lon="9.569530236144228"><ele>63.285714285714285</ele><time>2026-03-24T15:27:07Z</time></trkpt><trkpt lat="45.043872113247005" lon="9.569438356604532"><ele>63.14285714285714</ele><time>2026-03-24T15:27:12Z</time></trkpt><trkpt lat="45.04383371780235" lon="9.569347587295578"><ele>63.0</ele><time>2026-03-24T15:27:17Z</time></trkpt><trkpt lat="45.043801876947335" lon="9.569269829281483"><ele>63.0</ele><time>2026-03-24T15:27:21Z</time></trkpt><trkpt lat="45.0437435222772" lon="9.569191612580397"><ele>63.0</ele><time>2026-03-24T15:27:26Z</time></trkpt><trkpt lat="45.04371198877072" lon="9.569114273169784"><ele>63.0</ele><time>2026-03-24T15:27:30Z</time></trkpt><trkpt lat="45.04366919750267" lon="9.569031468171698"><ele>63.0</ele><time>2026-03-24T15:27:35Z</time></trkpt><trkpt lat="45.043634034384965" lon="9.568936222171205"><ele>63.0</ele><time>2026-03-24T15:27:40Z</time></trkpt><trkpt lat="45.0435896025894" lon="9.568866336904351"><ele>63.0</ele><time>2026-03-24T15:27:44Z</time></trkpt><trkpt lat="45.04355725310371" lon="9.568763695955534"><ele>63.0</ele><time>2026-03-24T15:27:49Z</time></trkpt><trkpt lat="45.04351433396709" lon="9.568690417600315"><ele>63.14285714285714</ele><time>2026-03-24T15:27:53Z</time></trkpt><trkpt lat="45.043497965679514" lon="9.568597105716803"><ele>63.285714285714285</ele><time>2026-03-24T15:27:58Z</time></trkpt><trkpt lat="45.04344074875676" lon="9.568536462756102"><ele>63.42857142857143</ele><time>2026-03-24T15:28:02Z</time></trkpt><trkpt lat="45.0433970607191" lon="9.568464891042437"><ele>63.57142857142857</ele><time>2026-03-24T15:28:06Z</time></trkpt><trkpt lat="45.04337160934711" lon="9.568362158013233"><ele>63.71428571428571</ele><time>2026-03-24T15:28:11Z</time></trkpt><trkpt lat="45.04332801947101" lon="9.56827023417095"><ele>63.857142857142854</ele><time>2026-03-24T15:28:16Z</time></trkpt><trkpt lat="45.04328754498491" lon="9.568195882031633"><ele>64.0</ele><time>2026-03-24T15:28:21Z</time></trkpt><trkpt lat="45.04322560761915" lon="9.568137634948094"><ele>64.0</ele><time>2026-03-24T15:28:26Z</time></trkpt><trkpt lat="45.04317366993175" lon="9.568055846367164"><ele>63.99999999999999</ele><time>2026-03-24T15:28:31Z</time></trkpt><trkpt lat="45.04314072807136" lon="9.567965860237985"><ele>64.0</ele><time>2026-03-24T15:28:36Z</time></trkpt><trkpt lat="45.04310755395567" lon="9.56786568720206"><ele>64.0</ele><time>2026-03-24T15:28:41Z</time></trkpt><trkpt lat="45.043064532937464" lon="9.56779859374695"><ele>63.99999999999999</ele><time>2026-03-24T15:28:45Z</time></trkpt><trkpt lat="45.043024944990044" lon="9.567716953750837"><ele>64.0</ele><time>2026-03-24T15:28:50Z</time></trkpt><trkpt lat="45.043005520053825" lon="9.567625971592248"><ele>64.0</ele><time>2026-03-24T15:28:54Z</time></trkpt><trkpt lat="45.042955914824226" lon="9.567544662378488"><ele>63.99999999999999</ele><time>2026-03-24T15:29:00Z</time></trkpt><trkpt lat="45.042892944033696" lon="9.567490008052198"><ele>64.0</ele><time>2026-03-24T15:29:05Z</time></trkpt><trkpt lat="45.04284994175035" lon="9.567399854689796"><ele>64.0</ele><time>2026-03-24T15:29:10Z</time></trkpt><trkpt lat="45.04281416964807" lon="9.56729941281841"><ele>64.0</ele><time>2026-03-24T15:29:15Z</time></trkpt><trkpt lat="45.042781354608806" lon="9.567206362484994"><ele>63.99999999999999</ele><time>2026-03-24T15:29:20Z</time></trkpt><trkpt lat="45.04274734237565" lon="9.567113263624853"><ele>64.0</ele><time>2026-03-24T15:29:25Z</time></trkpt><trkpt lat="45.042719310959995" lon="9.567014357299525"><ele>63.857142857142854</ele><time>2026-03-24T15:29:30Z</time></trkpt><trkpt lat="45.042673227244826" lon="9.56695152212249"><ele>63.71428571428571</ele><time>2026-03-24T15:29:34Z</time></trkpt><trkpt lat="45.042636065157254" lon="9.566857574387413"><ele>63.57142857142857</ele><time>2026-03-24T15:29:39Z</time></trkpt><trkpt lat="45.04260346478714" lon="9.566781191467157"><ele>63.42857142857143</ele><time>2026-03-24T15:29:43Z</time></trkpt><trkpt lat="45.04257193531925" lon="9.566702665068293"><ele>63.285714285714285</ele><time>2026-03-24T15:29:47Z</time></trkpt><trkpt lat="45.04254185597665" lon="9.56662105387038"><ele>63.14285714285714</ele><time>2026-03-24T15:29:52Z</time></trkpt><trkpt lat="45.042497900474494" lon="9.566553872096431"><ele>63.0</ele><time>2026-03-24T15:29:56Z</time></trkpt><trkpt lat="45.0424674168718" lon="9.56646562052789"><ele>63.14285714285714</ele><time>2026-03-24T15:30:01Z</time></trkpt><trkpt lat="45.042443391036386" lon="9.56636681362513"><ele>63.285714285714285</ele><time>2026-03-24T15:30:06Z</time></trkpt><trkpt lat="45.042417527752015" lon="9.566283449362652"><ele>63.42857142857143</ele><time>2026-03-24T15:30:10Z</time></trkpt><trkpt lat="45.04237823266759" lon="9.566191695466552"><ele>63.57142857142857</ele><time>2026-03-24T15:30:15Z</time></trkpt><trkpt lat="45.042348976006735" lon="9.566106290541546"><ele>63.71428571428571</ele><time>2026-03-24T15:30:20Z</time></trkpt><trkpt lat="45.04230473462863" lon="9.566035159257327"><ele>63.857142857142854</ele><time>2026-03-24T15:30:24Z</time></trkpt><trkpt lat="45.042263433836865" lon="9.565955596594751"><ele>64.0</ele><time>2026-03-24T15:30:29Z</time></trkpt><trkpt lat="45.042227494593604" lon="9.56587230128926"><ele>64.28571428571428</ele><time>2026-03-24T15:30:34Z</time></trkpt><trkpt lat="45.04220670989028" lon="9.565772777005495"><ele>64.57142857142857</ele><time>2026-03-24T15:30:39Z</time></trkpt><trkpt lat="45.04216367211888" lon="9.565700027855508"><ele>64.85714285714286</ele><time>2026-03-24T15:30:43Z</time></trkpt><trkpt lat="45.04214077752961" lon="9.56559750225626"><ele>65.14285714285714</ele><time>2026-03-24T15:30:48Z</time></trkpt><trkpt lat="45.042104511888425" lon="9.565520205079086"><ele>65.42857142857143</ele><time>2026-03-24T15:30:52Z</time></trkpt><trkpt lat="45.042065276961104" lon="9.56543351376525"><ele>65.71428571428571</ele><time>2026-03-24T15:30:57Z</time></trkpt><trkpt lat="45.042029987573514" lon="9.565346350940098"><ele>66.0</ele><time>2026-03-24T15:31:02Z</time></trkpt><trkpt lat="45.04199746801855" lon="9.565255973800681"><ele>66.14285714285714</ele><time>2026-03-24T15:31:07Z</time></trkpt><trkpt lat="45.04196360465022" lon="9.565170410673284"><ele>66.28571428571429</ele><time>2026-03-24T15:31:12Z</time></trkpt><trkpt lat="45.04190105487088" lon="9.565106022929465"><ele>66.42857142857143</ele><time>2026-03-24T15:31:17Z</time></trkpt><trkpt lat="45.04186889966107" lon="9.565016411232568"><ele>66.57142857142857</ele><time>2026-03-24T15:31:22Z</time></trkpt><trkpt lat="45.04184081525773" lon="9.564910391449764"><ele>66.71428571428571</ele><time>2026-03-24T15:31:27Z</time></trkpt><trkpt lat="45.0418143602173" lon="9.56482457280292"><ele>66.85714285714286</ele><time>2026-03-24T15:31:32Z</time></trkpt><trkpt lat="45.04178889618467" lon="9.56473265756294"><ele>67.0</ele><time>2026-03-24T15:31:37Z</time></trkpt><trkpt lat="45.04178537803544" lon="9.564640611066812"><ele>67.0</ele><time>2026-03-24T15:31:42Z</time></trkpt><trkpt lat="45.04174870000447" lon="9.564549230552897"><ele>67.0</ele><time>2026-03-24T15:31:47Z</time></trkpt><trkpt lat="45.041727079114786" lon="9.564445644791034"><ele>67.0</ele><time>2026-03-24T15:31:52Z</time></trkpt><trkpt lat="45.04171747319215" lon="9.564351236229225"><ele>67.0</ele><time>2026-03-24T15:31:57Z</time></trkpt><trkpt lat="45.04168847868725" lon="9.564265880053059"><ele>67.0</ele><time>2026-03-24T15:32:01.001Z</time></trkpt><trkpt lat="45.041671786653964" lon="9.564153899405706"><ele>67.0</ele><time>2026-03-24T15:32:06.001Z</time></trkpt><trkpt lat="45.04163734372951" lon="9.564056637989884"><ele>67.0</ele><time>2026-03-24T15:32:11.001Z</time></trkpt><trkpt lat="45.041636240552776" lon="9.563961734878204"><ele>66.71428571428572</ele><time>2026-03-24T15:32:15.001Z</time></trkpt><trkpt lat="45.0416136808422" lon="9.563873841352581"><ele>66.42857142857143</ele><time>2026-03-24T15:32:20.001Z</time></trkpt><trkpt lat="45.04158991920573" lon="9.563789533295335"><ele>66.14285714285714</ele><time>2026-03-24T15:32:25Z</time></trkpt><trkpt lat="45.04157597265863" lon="9.563683655310053"><ele>65.85714285714286</ele><time>2026-03-24T15:32:30Z</time></trkpt><trkpt lat="45.04155633170482" lon="9.563581919125275"><ele>65.57142857142857</ele><time>2026-03-24T15:32:35Z</time></trkpt><trkpt lat="45.04153796697398" lon="9.563480309367533"><ele>65.28571428571429</ele><time>2026-03-24T15:32:40Z</time></trkpt><trkpt lat="45.04151724222728" lon="9.563394590335937"><ele>65.0</ele><time>2026-03-24T15:32:44Z</time></trkpt><trkpt lat="45.04147933346492" lon="9.563304553000206"><ele>64.85714285714286</ele><time>2026-03-24T15:32:49Z</time></trkpt><trkpt lat="45.04145372033278" lon="9.563215848529083"><ele>64.71428571428572</ele><time>2026-03-24T15:32:54Z</time></trkpt><trkpt lat="45.04143625009523" lon="9.563127829012824"><ele>64.57142857142857</ele><time>2026-03-24T15:32:58Z</time></trkpt><trkpt lat="45.04141589832801" lon="9.563042085510764"><ele>64.42857142857143</ele><time>2026-03-24T15:33:02Z</time></trkpt><trkpt lat="45.041391996384085" lon="9.562941567301927"><ele>64.28571428571428</ele><time>2026-03-24T15:33:07Z</time></trkpt><trkpt lat="45.04138079474254" lon="9.56283309960546"><ele>64.14285714285714</ele><time>2026-03-24T15:33:12Z</time></trkpt><trkpt lat="45.041355660773185" lon="9.562750518241186"><ele>64.0</ele><time>2026-03-24T15:33:16Z</time></trkpt><trkpt lat="45.04133486229173" lon="9.562648625536552"><ele>64.0</ele><time>2026-03-24T15:33:21Z</time></trkpt><trkpt lat="45.04130967613836" lon="9.562554023999558"><ele>63.99999999999999</ele><time>2026-03-24T15:33:26Z</time></trkpt><trkpt lat="45.04129905005126" lon="9.562442311004057"><ele>64.0</ele><time>2026-03-24T15:33:31Z</time></trkpt><trkpt lat="45.04127038038659" lon="9.562361756996456"><ele>64.0</ele><time>2026-03-24T15:33:35Z</time></trkpt><trkpt lat="45.04126209069015" lon="9.562266200900606"><ele>63.99999999999999</ele><time>2026-03-24T15:33:40Z</time></trkpt><trkpt lat="45.04124125755802" lon="9.562172347371607"><ele>64.0</ele><time>2026-03-24T15:33:45Z</time></trkpt><trkpt lat="45.04122537052297" lon="9.562083370349363"><ele>64.0</ele><time>2026-03-24T15:33:49Z</time></trkpt><trkpt lat="45.04120610800492" lon="9.56197927520428"><ele>64.14285714285714</ele><time>2026-03-24T15:33:54Z</time></trkpt><trkpt lat="45.041171369968204" lon="9.561885031250492"><ele>64.28571428571428</ele><time>2026-03-24T15:33:59Z</time></trkpt><trkpt lat="45.04115113366714" lon="9.5617840081905"><ele>64.42857142857143</ele><time>2026-03-24T15:34:04Z</time></trkpt><trkpt lat="45.04112911025926" lon="9.561682197892083"><ele>64.57142857142857</ele><time>2026-03-24T15:34:09.001Z</time></trkpt><trkpt lat="45.04108586211868" lon="9.561604042012348"><ele>64.71428571428572</ele><time>2026-03-24T15:34:14.001Z</time></trkpt><trkpt lat="45.04105404331502" lon="9.561503574307306"><ele>64.85714285714286</ele><time>2026-03-24T15:34:20Z</time></trkpt><trkpt lat="45.04104291889768" lon="9.561402223286283"><ele>65.0</ele><time>2026-03-24T15:34:25Z</time></trkpt><trkpt lat="45.04103253762817" lon="9.561302515700893"><ele>65.00000000000001</ele><time>2026-03-24T15:34:30Z</time></trkpt><trkpt lat="45.040991885845806" lon="9.561217560458227"><ele>65.0</ele><time>2026-03-24T15:34:35Z</time></trkpt><trkpt lat="45.04096794338215" lon="9.561107720496782"><ele>65.0</ele><time>2026-03-24T15:34:40Z</time></trkpt><trkpt lat="45.04094389683562" lon="9.561005189603648"><ele>65.0</ele><time>2026-03-24T15:34:45Z</time></trkpt><trkpt lat="45.04091327427625" lon="9.560907583545607"><ele>65.0</ele><time>2026-03-24T15:34:50Z</time></trkpt><trkpt lat="45.040883990565575" lon="9.560805356510949"><ele>65.00000000000001</ele><time>2026-03-24T15:34:55Z</time></trkpt><trkpt lat="45.0408763022843" lon="9.560713262062277"><ele>65.0</ele><time>2026-03-24T15:34:59Z</time></trkpt><trkpt lat="45.04084133266305" lon="9.560618773287787"><ele>65.00000000000001</ele><time>2026-03-24T15:35:04Z</time></trkpt><trkpt lat="45.04082103256846" lon="9.560522354017099"><ele>65.0</ele><time>2026-03-24T15:35:09Z</time></trkpt><trkpt lat="45.040799828930155" lon="9.560436710743526"><ele>65.0</ele><time>2026-03-24T15:35:13Z</time></trkpt><trkpt lat="45.04076899564017" lon="9.56033908994005"><ele>65.0</ele><time>2026-03-24T15:35:18Z</time></trkpt><trkpt lat="45.04073819991553" lon="9.560248259791049"><ele>65.0</ele><time>2026-03-24T15:35:23Z</time></trkpt><trkpt lat="45.04069958551977" lon="9.56017244316694"><ele>65.00000000000001</ele><time>2026-03-24T15:35:28Z</time></trkpt><trkpt lat="45.04068273184658" lon="9.560067621667969"><ele>65.0</ele><time>2026-03-24T15:35:33Z</time></trkpt><trkpt lat="45.040671564555026" lon="9.559979007708916"><ele>65.28571428571429</ele><time>2026-03-24T15:35:37Z</time></trkpt><trkpt lat="45.04065109802038" lon="9.559874614714255"><ele>65.57142857142857</ele><time>2026-03-24T15:35:42Z</time></trkpt><trkpt lat="45.040626664249594" lon="9.559773890502056"><ele>65.85714285714286</ele><time>2026-03-24T15:35:47Z</time></trkpt><trkpt lat="45.040609283297755" lon="9.559673588197398"><ele>66.14285714285714</ele><time>2026-03-24T15:35:52Z</time></trkpt><trkpt lat="45.040594057909615" lon="9.559572119035337"><ele>66.42857142857143</ele><time>2026-03-24T15:35:57Z</time></trkpt><trkpt lat="45.04056090930341" lon="9.559487040311433"><ele>66.71428571428572</ele><time>2026-03-24T15:36:01Z</time></trkpt><trkpt lat="45.04052056953557" lon="9.559402572987182"><ele>67.0</ele><time>2026-03-24T15:36:06Z</time></trkpt><trkpt lat="45.04048374731249" lon="9.55932124597476"><ele>67.14285714285714</ele><time>2026-03-24T15:36:11Z</time></trkpt><trkpt lat="45.0404881687845" lon="9.559227282275694"><ele>67.28571428571428</ele><time>2026-03-24T15:36:16Z</time></trkpt><trkpt lat="45.04048948492326" lon="9.559119753407128"><ele>67.42857142857142</ele><time>2026-03-24T15:36:21Z</time></trkpt><trkpt lat="45.04050985637736" lon="9.55902948787919"><ele>67.57142857142857</ele><time>2026-03-24T15:36:26Z</time></trkpt><trkpt lat="45.04052580475194" lon="9.558941677335424"><ele>67.71428571428571</ele><time>2026-03-24T15:36:31Z</time></trkpt><trkpt lat="45.040532991507895" lon="9.55884513278329"><ele>67.85714285714285</ele><time>2026-03-24T15:36:36Z</time></trkpt><trkpt lat="45.04056348888635" lon="9.558748060021555"><ele>68.0</ele><time>2026-03-24T15:36:41Z</time></trkpt><trkpt lat="45.040580484885105" lon="9.558645838280981"><ele>67.57142857142857</ele><time>2026-03-24T15:36:46Z</time></trkpt><trkpt lat="45.04059644054211" lon="9.558542100492266"><ele>67.14285714285714</ele><time>2026-03-24T15:36:51Z</time></trkpt><trkpt lat="45.04059688865435" lon="9.558434189947741"><ele>66.71428571428572</ele><time>2026-03-24T15:36:56Z</time></trkpt><trkpt lat="45.04061044812545" lon="9.558336231752032"><ele>66.28571428571428</ele><time>2026-03-24T15:37:01Z</time></trkpt><trkpt lat="45.04062717414497" lon="9.558239928428701"><ele>65.85714285714286</ele><time>2026-03-24T15:37:06Z</time></trkpt><trkpt lat="45.040645129977484" lon="9.558136010673271"><ele>65.42857142857143</ele><time>2026-03-24T15:37:11Z</time></trkpt><trkpt lat="45.040655573003654" lon="9.558045236808427"><ele>65.0</ele><time>2026-03-24T15:37:15Z</time></trkpt><trkpt lat="45.04066835167532" lon="9.55795499189616"><ele>65.14285714285715</ele><time>2026-03-24T15:37:20Z</time></trkpt><trkpt lat="45.04066824281873" lon="9.557863285803009"><ele>65.28571428571429</ele><time>2026-03-24T15:37:24Z</time></trkpt><trkpt lat="45.040693193341795" lon="9.557769695173306"><ele>65.42857142857143</ele><time>2026-03-24T15:37:29Z</time></trkpt><trkpt lat="45.040693188906396" lon="9.55766860827474"><ele>65.57142857142858</ele><time>2026-03-24T15:37:34Z</time></trkpt><trkpt lat="45.040708050969535" lon="9.55757011676183"><ele>65.71428571428572</ele><time>2026-03-24T15:37:39Z</time></trkpt><trkpt lat="45.04072192744921" lon="9.557473905811197"><ele>65.85714285714286</ele><time>2026-03-24T15:37:44Z</time></trkpt><trkpt lat="45.040730474523755" lon="9.557366394511474"><ele>66.0</ele><time>2026-03-24T15:37:49Z</time></trkpt><trkpt lat="45.0407522757801" lon="9.557281883371438"><ele>66.0</ele><time>2026-03-24T15:37:53Z</time></trkpt><trkpt lat="45.04076740664193" lon="9.557180018122995"><ele>66.0</ele><time>2026-03-24T15:37:58Z</time></trkpt><trkpt lat="45.04078227048897" lon="9.557073604040271"><ele>66.0</ele><time>2026-03-24T15:38:03Z</time></trkpt><trkpt lat="45.04078461028247" lon="9.55696505449971"><ele>66.0</ele><time>2026-03-24T15:38:08Z</time></trkpt><trkpt lat="45.04080206223005" lon="9.556864622578235"><ele>66.0</ele><time>2026-03-24T15:38:13Z</time></trkpt><trkpt lat="45.04081594325784" lon="9.556772057918561"><ele>66.0</ele><time>2026-03-24T15:38:18Z</time></trkpt><trkpt lat="45.040829300908456" lon="9.556670401372132"><ele>66.0</ele><time>2026-03-24T15:38:23Z</time></trkpt><trkpt lat="45.04083046136975" lon="9.556577877201216"><ele>65.85714285714286</ele><time>2026-03-24T15:38:27Z</time></trkpt><trkpt lat="45.04085170594247" lon="9.556489089322469"><ele>65.71428571428572</ele><time>2026-03-24T15:38:32Z</time></trkpt><trkpt lat="45.04086471928675" lon="9.556399720598632"><ele>65.57142857142858</ele><time>2026-03-24T15:38:37Z</time></trkpt><trkpt lat="45.0408662464566" lon="9.55629713314471"><ele>65.42857142857143</ele><time>2026-03-24T15:38:42Z</time></trkpt><trkpt lat="45.040859649324865" lon="9.556195533664056"><ele>65.28571428571429</ele><time>2026-03-24T15:38:47Z</time></trkpt><trkpt lat="45.040870589608474" lon="9.55610590094075"><ele>65.14285714285715</ele><time>2026-03-24T15:38:52Z</time></trkpt><trkpt lat="45.04088026823005" lon="9.556006000876112"><ele>65.0</ele><time>2026-03-24T15:38:57Z</time></trkpt><trkpt lat="45.04089643131383" lon="9.555900661714055"><ele>65.42857142857143</ele><time>2026-03-24T15:39:03Z</time></trkpt><trkpt lat="45.040907251936545" lon="9.555801753619441"><ele>65.85714285714286</ele><time>2026-03-24T15:39:08Z</time></trkpt><trkpt lat="45.04091469744517" lon="9.555683707236286"><ele>66.28571428571428</ele><time>2026-03-24T15:39:14Z</time></trkpt><trkpt lat="45.040925052646806" lon="9.555594865557715"><ele>66.71428571428572</ele><time>2026-03-24T15:39:19Z</time></trkpt><trkpt lat="45.04092951091677" lon="9.555501440740443"><ele>67.14285714285714</ele><time>2026-03-24T15:39:23Z</time></trkpt><trkpt lat="45.04093288104766" lon="9.555397351229892"><ele>67.57142857142857</ele><time>2026-03-24T15:39:28Z</time></trkpt><trkpt lat="45.04093600674165" lon="9.555285017758285"><ele>68.0</ele><time>2026-03-24T15:39:33Z</time></trkpt><trkpt lat="45.04092944269125" lon="9.55518145270744"><ele>68.14285714285714</ele><time>2026-03-24T15:39:38Z</time></trkpt><trkpt lat="45.040930661659395" lon="9.555070401607992"><ele>68.28571428571428</ele><time>2026-03-24T15:39:43Z</time></trkpt><trkpt lat="45.040932860979" lon="9.554959814311651"><ele>68.42857142857143</ele><time>2026-03-24T15:39:48Z</time></trkpt><trkpt lat="45.040961028028" lon="9.55487612743768"><ele>68.57142857142857</ele><time>2026-03-24T15:39:52Z</time></trkpt><trkpt lat="45.04098672713327" lon="9.554784839998042"><ele>68.71428571428572</ele><time>2026-03-24T15:39:57Z</time></trkpt><trkpt lat="45.04099061197576" lon="9.5546931187739"><ele>68.85714285714286</ele><time>2026-03-24T15:40:01Z</time></trkpt><trkpt lat="45.04100319867485" lon="9.554592204388442"><ele>69.0</ele><time>2026-03-24T15:40:06Z</time></trkpt><trkpt lat="45.04099933820442" lon="9.554496750062626"><ele>69.14285714285714</ele><time>2026-03-24T15:40:10Z</time></trkpt><trkpt lat="45.04098656064494" lon="9.554408323054172"><ele>69.28571428571429</ele><time>2026-03-24T15:40:14Z</time></trkpt><trkpt lat="45.04096541777615" lon="9.554308129385506"><ele>69.42857142857143</ele><time>2026-03-24T15:40:19Z</time></trkpt><trkpt lat="45.040954007860115" lon="9.554220162281132"><ele>69.57142857142857</ele><time>2026-03-24T15:40:23.997Z</time></trkpt><trkpt lat="45.04093292832097" lon="9.554127167107032"><ele>69.71428571428572</ele><time>2026-03-24T15:40:27.998Z</time></trkpt><trkpt lat="45.04092098767928" lon="9.554019155695869"><ele>69.85714285714286</ele><time>2026-03-24T15:40:32.998Z</time></trkpt><trkpt lat="45.04088213884372" lon="9.553938526850102"><ele>70.0</ele><time>2026-03-24T15:40:37.998Z</time></trkpt><trkpt lat="45.04087110695354" lon="9.553847707464811"><ele>70.0</ele><time>2026-03-24T15:40:42.998Z</time></trkpt><trkpt lat="45.04086685731908" lon="9.55375273176153"><ele>70.0</ele><time>2026-03-24T15:40:46.999Z</time></trkpt><trkpt lat="45.040843423690966" lon="9.553654393325447"><ele>70.0</ele><time>2026-03-24T15:40:51.999Z</time></trkpt><trkpt lat="45.04080897617186" lon="9.553565772741013"><ele>70.0</ele><time>2026-03-24T15:40:56.999Z</time></trkpt><trkpt lat="45.04075501304837" lon="9.553496561705359"><ele>70.0</ele><time>2026-03-24T15:41:01.999Z</time></trkpt><trkpt lat="45.040713391884616" lon="9.553408668487885"><ele>70.0</ele><time>2026-03-24T15:41:06.999Z</time></trkpt><trkpt lat="45.04068474191909" lon="9.553312414656395"><ele>70.0</ele><time>2026-03-24T15:41:11.999Z</time></trkpt><trkpt lat="45.04066942143243" lon="9.553223375980068"><ele>70.0</ele><time>2026-03-24T15:41:16.999Z</time></trkpt><trkpt lat="45.04065759763524" lon="9.55312418162425"><ele>70.0</ele><time>2026-03-24T15:41:20.999Z</time></trkpt><trkpt lat="45.04066300828743" lon="9.553027472842842"><ele>70.0</ele><time>2026-03-24T15:41:24.999Z</time></trkpt><trkpt lat="45.04065736831386" lon="9.55292976539227"><ele>70.0</ele><time>2026-03-24T15:41:29.999Z</time></trkpt><trkpt lat="45.04062974212953" lon="9.552845051248724"><ele>70.0</ele><time>2026-03-24T15:41:34.999Z</time></trkpt><trkpt lat="45.04062721308699" lon="9.552755715455296"><ele>70.0</ele><time>2026-03-24T15:41:38.999Z</time></trkpt><trkpt lat="45.04060721230536" lon="9.552657662679179"><ele>70.0</ele><time>2026-03-24T15:41:45.999Z</time></trkpt><trkpt lat="45.04061753028047" lon="9.552568373571587"><ele>70.0</ele><time>2026-03-24T15:41:50.999Z</time></trkpt><trkpt lat="45.0406065199565" lon="9.552467567498438"><ele>70.0</ele><time>2026-03-24T15:41:56.999Z</time></trkpt><trkpt lat="45.04060256035361" lon="9.55237843470189"><ele>70.0</ele><time>2026-03-24T15:42:02.999Z</time></trkpt><trkpt lat="45.040581164314126" lon="9.552291628510615"><ele>70.0</ele><time>2026-03-24T15:42:06.999Z</time></trkpt><trkpt lat="45.04056390108692" lon="9.552196447357632"><ele>70.0</ele><time>2026-03-24T15:42:11.999Z</time></trkpt><trkpt lat="45.04054206106849" lon="9.55210902622812"><ele>70.0</ele><time>2026-03-24T15:42:15.999Z</time></trkpt><trkpt lat="45.04061741604623" lon="9.552100249756181"><ele>70.0</ele><time>2026-03-24T15:42:28.999Z</time></trkpt><trkpt lat="45.04069131681776" lon="9.552105158047006"><ele>70.0</ele><time>2026-03-24T15:42:33.999Z</time></trkpt><trkpt lat="45.04076557797254" lon="9.552120764122819"><ele>70.0</ele><time>2026-03-24T15:42:39Z</time></trkpt><trkpt lat="45.040839241607955" lon="9.552124063396201"><ele>70.0</ele><time>2026-03-24T15:42:44Z</time></trkpt><trkpt lat="45.04091564894238" lon="9.552111695300338"><ele>70.0</ele><time>2026-03-24T15:42:49Z</time></trkpt><trkpt lat="45.04098716742355" lon="9.552116623913054"><ele>70.0</ele><time>2026-03-24T15:42:54Z</time></trkpt><trkpt lat="45.041010468640174" lon="9.552006052424032"><ele>70.0</ele><time>2026-03-24T15:42:58Z</time></trkpt><trkpt lat="45.04098571206761" lon="9.551910393103691"><ele>69.71428571428571</ele><time>2026-03-24T15:43:02Z</time></trkpt><trkpt lat="45.04104795806263" lon="9.551883499905427"><ele>69.42857142857143</ele><time>2026-03-24T15:43:08Z</time></trkpt><trkpt lat="45.04111268455586" lon="9.551863060177007"><ele>69.14285714285714</ele><time>2026-03-24T15:43:14Z</time></trkpt><trkpt lat="45.04117900260649" lon="9.551861074119236"><ele>68.85714285714286</ele><time>2026-03-24T15:43:19Z</time></trkpt><trkpt lat="45.04124869884699" lon="9.551857790635678"><ele>68.57142857142857</ele><time>2026-03-24T15:43:25Z</time></trkpt><trkpt lat="45.04131387598496" lon="9.551844162948088"><ele>68.28571428571428</ele><time>2026-03-24T15:43:30Z</time></trkpt><trkpt lat="45.041379811210206" lon="9.551836360437253"><ele>68.0</ele><time>2026-03-24T15:43:35Z</time></trkpt><trkpt lat="45.0414473552965" lon="9.551819965791886"><ele>67.99999999999999</ele><time>2026-03-24T15:43:40Z</time></trkpt><trkpt lat="45.04151590165066" lon="9.551813442248923"><ele>68.0</ele><time>2026-03-24T15:43:45Z</time></trkpt><trkpt lat="45.04158373593873" lon="9.55180422705486"><ele>68.0</ele><time>2026-03-24T15:43:50Z</time></trkpt><trkpt lat="45.041653806998234" lon="9.551797772429829"><ele>68.0</ele><time>2026-03-24T15:43:55Z</time></trkpt><trkpt lat="45.041717915607904" lon="9.55178486313275"><ele>68.0</ele><time>2026-03-24T15:44:00Z</time></trkpt><trkpt lat="45.04178569496675" lon="9.551775496413091"><ele>67.99999999999999</ele><time>2026-03-24T15:44:05Z</time></trkpt><trkpt lat="45.04185556214379" lon="9.551773082415904"><ele>68.0</ele><time>2026-03-24T15:44:10Z</time></trkpt><trkpt lat="45.04193100252725" lon="9.551766690701518"><ele>67.99999999999999</ele><time>2026-03-24T15:44:15Z</time></trkpt><trkpt lat="45.0419955283834" lon="9.551766137792047"><ele>68.0</ele><time>2026-03-24T15:44:19Z</time></trkpt><trkpt lat="45.042070972330755" lon="9.5517567540678"><ele>68.0</ele><time>2026-03-24T15:44:24Z</time></trkpt><trkpt lat="45.042146483071484" lon="9.551749232046317"><ele>68.0</ele><time>2026-03-24T15:44:30Z</time></trkpt><trkpt lat="45.04222535345206" lon="9.5517359899547"><ele>68.0</ele><time>2026-03-24T15:44:35Z</time></trkpt><trkpt lat="45.0422924395622" lon="9.551720829556112"><ele>67.99999999999999</ele><time>2026-03-24T15:44:40Z</time></trkpt><trkpt lat="45.04236611704639" lon="9.551701955270488"><ele>68.0</ele><time>2026-03-24T15:44:45Z</time></trkpt><trkpt lat="45.042432480100814" lon="9.551693772837687"><ele>67.85714285714285</ele><time>2026-03-24T15:44:50Z</time></trkpt><trkpt lat="45.04250453300779" lon="9.551698216927505"><ele>67.71428571428571</ele><time>2026-03-24T15:44:55Z</time></trkpt><trkpt lat="45.04257539493489" lon="9.55168907289625"><ele>67.57142857142857</ele><time>2026-03-24T15:45:00Z</time></trkpt><trkpt lat="45.04264202060355" lon="9.551690063591764"><ele>67.42857142857142</ele><time>2026-03-24T15:45:05Z</time></trkpt><trkpt lat="45.042716558414675" lon="9.55168550089495"><ele>67.28571428571428</ele><time>2026-03-24T15:45:10Z</time></trkpt><trkpt lat="45.042789343686195" lon="9.551665513342643"><ele>67.14285714285714</ele><time>2026-03-24T15:45:15Z</time></trkpt><trkpt lat="45.04286320462036" lon="9.55166472537032"><ele>67.0</ele><time>2026-03-24T15:45:20Z</time></trkpt><trkpt lat="45.0429348426422" lon="9.551660326861235"><ele>67.0</ele><time>2026-03-24T15:45:25Z</time></trkpt><trkpt lat="45.04301050010695" lon="9.55164453180002"><ele>67.0</ele><time>2026-03-24T15:45:30Z</time></trkpt><trkpt lat="45.043079487180066" lon="9.551623869429024"><ele>67.0</ele><time>2026-03-24T15:45:35Z</time></trkpt><trkpt lat="45.04314922986313" lon="9.551610762188508"><ele>67.0</ele><time>2026-03-24T15:45:40Z</time></trkpt><trkpt lat="45.043220735202055" lon="9.551604156681094"><ele>67.0</ele><time>2026-03-24T15:45:46Z</time></trkpt><trkpt lat="45.043289524494405" lon="9.55159463854735"><ele>67.0</ele><time>2026-03-24T15:45:51Z</time></trkpt><trkpt lat="45.04336464031532" lon="9.551584689746575"><ele>67.0</ele><time>2026-03-24T15:45:56Z</time></trkpt><trkpt lat="45.04342634097487" lon="9.551563807903833"><ele>66.85714285714286</ele><time>2026-03-24T15:46:01Z</time></trkpt><trkpt lat="45.043492695277195" lon="9.5515416610501"><ele>66.71428571428571</ele><time>2026-03-24T15:46:06Z</time></trkpt><trkpt lat="45.043567088715506" lon="9.551538635813046"><ele>66.57142857142857</ele><time>2026-03-24T15:46:11Z</time></trkpt><trkpt lat="45.04363489364196" lon="9.551510975811047"><ele>66.42857142857143</ele><time>2026-03-24T15:46:16Z</time></trkpt><trkpt lat="45.04369900412629" lon="9.551508568734581"><ele>66.28571428571429</ele><time>2026-03-24T15:46:21Z</time></trkpt><trkpt lat="45.043769319168064" lon="9.551496465237747"><ele>66.14285714285714</ele><time>2026-03-24T15:46:26Z</time></trkpt><trkpt lat="45.04383995503895" lon="9.551485685756328"><ele>66.0</ele><time>2026-03-24T15:46:31Z</time></trkpt><trkpt lat="45.04390661150414" lon="9.551470099845092"><ele>66.0</ele><time>2026-03-24T15:46:36Z</time></trkpt><trkpt lat="45.043981371677674" lon="9.551477876099037"><ele>66.0</ele><time>2026-03-24T15:46:41.001Z</time></trkpt><trkpt lat="45.04405583713801" lon="9.551444869936688"><ele>66.0</ele><time>2026-03-24T15:46:47.001Z</time></trkpt><trkpt lat="45.04412696620775" lon="9.5514439692037"><ele>66.0</ele><time>2026-03-24T15:46:52.001Z</time></trkpt><trkpt lat="45.04419482711135" lon="9.55143537327383"><ele>66.0</ele><time>2026-03-24T15:46:57.001Z</time></trkpt><trkpt lat="45.04426396977781" lon="9.55142436229621"><ele>66.0</ele><time>2026-03-24T15:47:02.001Z</time></trkpt><trkpt lat="45.044340139364174" lon="9.551414695260775"><ele>66.0</ele><time>2026-03-24T15:47:07.001Z</time></trkpt><trkpt lat="45.044408233527655" lon="9.551400229476002"><ele>66.28571428571428</ele><time>2026-03-24T15:47:12.001Z</time></trkpt><trkpt lat="45.04448306135616" lon="9.551394507912857"><ele>66.57142857142857</ele><time>2026-03-24T15:47:17.001Z</time></trkpt><trkpt lat="45.0445580483911" lon="9.551378747090101"><ele>66.85714285714286</ele><time>2026-03-24T15:47:22.001Z</time></trkpt><trkpt lat="45.0446291376482" lon="9.551374509865417"><ele>67.14285714285714</ele><time>2026-03-24T15:47:27.001Z</time></trkpt><trkpt lat="45.04469775146146" lon="9.551363736516187"><ele>67.42857142857143</ele><time>2026-03-24T15:47:32.001Z</time></trkpt><trkpt lat="45.04477048728786" lon="9.551355542867263"><ele>67.71428571428571</ele><time>2026-03-24T15:47:37Z</time></trkpt><trkpt lat="45.04484219335026" lon="9.551343253579978"><ele>68.0</ele><time>2026-03-24T15:47:42Z</time></trkpt><trkpt lat="45.044916333795385" lon="9.551340276600827"><ele>67.85714285714285</ele><time>2026-03-24T15:47:47Z</time></trkpt><trkpt lat="45.04498866695695" lon="9.551333393500611"><ele>67.71428571428571</ele><time>2026-03-24T15:47:52Z</time></trkpt><trkpt lat="45.045056611681105" lon="9.551321434508171"><ele>67.57142857142857</ele><time>2026-03-24T15:47:57Z</time></trkpt><trkpt lat="45.04512722627279" lon="9.551300312410676"><ele>67.42857142857142</ele><time>2026-03-24T15:48:02Z</time></trkpt><trkpt lat="45.045200981071574" lon="9.551292903065319"><ele>67.28571428571428</ele><time>2026-03-24T15:48:07Z</time></trkpt><trkpt lat="45.04527186779209" lon="9.551280593009391"><ele>67.14285714285714</ele><time>2026-03-24T15:48:12Z</time></trkpt><trkpt lat="45.045344789161554" lon="9.55127245793478"><ele>67.0</ele><time>2026-03-24T15:48:17Z</time></trkpt><trkpt lat="45.045413351182674" lon="9.551254080411887"><ele>67.0</ele><time>2026-03-24T15:48:22Z</time></trkpt><trkpt lat="45.045485236767945" lon="9.551266226118315"><ele>67.0</ele><time>2026-03-24T15:48:27.001Z</time></trkpt><trkpt lat="45.045550225285325" lon="9.55123948556344"><ele>67.0</ele><time>2026-03-24T15:48:32.001Z</time></trkpt><trkpt lat="45.045618798762995" lon="9.551239404260077"><ele>67.0</ele><time>2026-03-24T15:48:37.001Z</time></trkpt><trkpt lat="45.04568893738103" lon="9.551218581216736"><ele>67.0</ele><time>2026-03-24T15:48:42.001Z</time></trkpt><trkpt lat="45.04576259437624" lon="9.551221884278826"><ele>67.0</ele><time>2026-03-24T15:48:47.001Z</time></trkpt><trkpt lat="45.045829003894475" lon="9.551210378828426"><ele>67.0</ele><time>2026-03-24T15:48:52.001Z</time></trkpt><trkpt lat="45.04589929959009" lon="9.551195392559585"><ele>66.57142857142857</ele><time>2026-03-24T15:48:57.001Z</time></trkpt><trkpt lat="45.045970325299066" lon="9.551190350494819"><ele>66.14285714285714</ele><time>2026-03-24T15:49:02.001Z</time></trkpt><trkpt lat="45.04603490846388" lon="9.551185176596766"><ele>65.71428571428571</ele><time>2026-03-24T15:49:07.001Z</time></trkpt><trkpt lat="45.04611086172988" lon="9.551171130916348"><ele>65.28571428571428</ele><time>2026-03-24T15:49:12.001Z</time></trkpt><trkpt lat="45.04618498644819" lon="9.551173988563775"><ele>64.85714285714285</ele><time>2026-03-24T15:49:17.001Z</time></trkpt><trkpt lat="45.04625246534421" lon="9.551152470189693"><ele>64.42857142857143</ele><time>2026-03-24T15:49:22.001Z</time></trkpt><trkpt lat="45.04632533812934" lon="9.55114019740606"><ele>64.0</ele><time>2026-03-24T15:49:27Z</time></trkpt><trkpt lat="45.04638963478935" lon="9.551133264445362"><ele>64.0</ele><time>2026-03-24T15:49:32Z</time></trkpt><trkpt lat="45.04646369463816" lon="9.55112332708682"><ele>63.99999999999999</ele><time>2026-03-24T15:49:37Z</time></trkpt><trkpt lat="45.0465392430338" lon="9.551113411604648"><ele>64.0</ele><time>2026-03-24T15:49:42Z</time></trkpt><trkpt lat="45.04660909809618" lon="9.55111330801978"><ele>64.0</ele><time>2026-03-24T15:49:47Z</time></trkpt><trkpt lat="45.046677652703785" lon="9.551090946300384"><ele>63.99999999999999</ele><time>2026-03-24T15:49:52Z</time></trkpt><trkpt lat="45.04674298033524" lon="9.55109811848572"><ele>64.0</ele><time>2026-03-24T15:49:57Z</time></trkpt><trkpt lat="45.04681291556317" lon="9.551085624271968"><ele>64.0</ele><time>2026-03-24T15:50:02Z</time></trkpt><trkpt lat="45.04687931660931" lon="9.551064828432892"><ele>64.14285714285714</ele><time>2026-03-24T15:50:07Z</time></trkpt><trkpt lat="45.04695036155598" lon="9.551050113007143"><ele>64.28571428571428</ele><time>2026-03-24T15:50:12Z</time></trkpt><trkpt lat="45.047021786508644" lon="9.55104071419444"><ele>64.42857142857143</ele><time>2026-03-24T15:50:17Z</time></trkpt><trkpt lat="45.04709650315882" lon="9.551044833352472"><ele>64.57142857142857</ele><time>2026-03-24T15:50:22Z</time></trkpt><trkpt lat="45.047171228270294" lon="9.551034846444272"><ele>64.71428571428572</ele><time>2026-03-24T15:50:27Z</time></trkpt><trkpt lat="45.04724561885647" lon="9.55103193564241"><ele>64.85714285714286</ele><time>2026-03-24T15:50:32Z</time></trkpt><trkpt lat="45.047321701572" lon="9.551018338277395"><ele>65.0</ele><time>2026-03-24T15:50:37Z</time></trkpt><trkpt lat="45.0473955211204" lon="9.550995039627674"><ele>65.00000000000001</ele><time>2026-03-24T15:50:42Z</time></trkpt><trkpt lat="45.04746045858436" lon="9.550970241254765"><ele>65.0</ele><time>2026-03-24T15:50:47Z</time></trkpt><trkpt lat="45.04752528632791" lon="9.550979948000162"><ele>65.0</ele><time>2026-03-24T15:50:52Z</time></trkpt><trkpt lat="45.04744699446652" lon="9.550937108990418"><ele>65.0</ele><time>2026-03-24T15:50:57.001Z</time></trkpt><trkpt lat="45.0473836693559" lon="9.55095110970316"><ele>65.0</ele><time>2026-03-24T15:51:01.001Z</time></trkpt><trkpt lat="45.04731392476351" lon="9.550957211952433"><ele>65.00000000000001</ele><time>2026-03-24T15:51:06.001Z</time></trkpt><trkpt lat="45.04724379149217" lon="9.550970290954673"><ele>65.0</ele><time>2026-03-24T15:51:11.001Z</time></trkpt><trkpt lat="45.04717148702715" lon="9.550961012990921"><ele>65.00000000000001</ele><time>2026-03-24T15:51:16Z</time></trkpt><trkpt lat="45.04710378801559" lon="9.550976363422158"><ele>65.0</ele><time>2026-03-24T15:51:22Z</time></trkpt><trkpt lat="45.047035954118016" lon="9.550987561799014"><ele>65.0</ele><time>2026-03-24T15:51:27Z</time></trkpt><trkpt lat="45.04696620110968" lon="9.550996678988774"><ele>65.0</ele><time>2026-03-24T15:51:31Z</time></trkpt><trkpt lat="45.046899780056904" lon="9.55100089658197"><ele>65.0</ele><time>2026-03-24T15:51:35Z</time></trkpt><trkpt lat="45.046831209974606" lon="9.550999664215903"><ele>65.00000000000001</ele><time>2026-03-24T15:51:40Z</time></trkpt><trkpt lat="45.046763143353076" lon="9.551033284144713"><ele>65.0</ele><time>2026-03-24T15:51:45Z</time></trkpt><trkpt lat="45.0466963522849" lon="9.55102271969492"><ele>64.85714285714286</ele><time>2026-03-24T15:51:50Z</time></trkpt><trkpt lat="45.04662784825955" lon="9.551021942171262"><ele>64.71428571428572</ele><time>2026-03-24T15:51:55Z</time></trkpt><trkpt lat="45.04655510421325" lon="9.551038592535686"><ele>64.57142857142857</ele><time>2026-03-24T15:52:00Z</time></trkpt><trkpt lat="45.04648664782579" lon="9.551041821842432"><ele>64.42857142857143</ele><time>2026-03-24T15:52:05Z</time></trkpt><trkpt lat="45.046417544524004" lon="9.55105765813038"><ele>64.28571428571428</ele><time>2026-03-24T15:52:10Z</time></trkpt><trkpt lat="45.04634399798035" lon="9.551062579947436"><ele>64.14285714285714</ele><time>2026-03-24T15:52:15Z</time></trkpt><trkpt lat="45.04627472551016" lon="9.551073524964247"><ele>64.0</ele><time>2026-03-24T15:52:20Z</time></trkpt><trkpt lat="45.04619974292856" lon="9.551060591723335"><ele>64.0</ele><time>2026-03-24T15:52:25Z</time></trkpt><trkpt lat="45.04612671240336" lon="9.551083319473678"><ele>63.99999999999999</ele><time>2026-03-24T15:52:30Z</time></trkpt><trkpt lat="45.04605425224245" lon="9.551096997630834"><ele>64.0</ele><time>2026-03-24T15:52:35Z</time></trkpt><trkpt lat="45.04598876435655" lon="9.551114701953395"><ele>64.0</ele><time>2026-03-24T15:52:40Z</time></trkpt><trkpt lat="45.045917229152764" lon="9.55112433219268"><ele>63.99999999999999</ele><time>2026-03-24T15:52:45Z</time></trkpt><trkpt lat="45.045847270233345" lon="9.551143413412289"><ele>64.0</ele><time>2026-03-24T15:52:50Z</time></trkpt><trkpt lat="45.04577380024667" lon="9.551135337231347"><ele>64.0</ele><time>2026-03-24T15:52:55Z</time></trkpt><trkpt lat="45.045701000932794" lon="9.551148663410883"><ele>64.28571428571428</ele><time>2026-03-24T15:53:00Z</time></trkpt><trkpt lat="45.04563166705316" lon="9.551157467712855"><ele>64.57142857142857</ele><time>2026-03-24T15:53:05Z</time></trkpt><trkpt lat="45.04556199395529" lon="9.551162360319456"><ele>64.85714285714286</ele><time>2026-03-24T15:53:10Z</time></trkpt><trkpt lat="45.045486537095684" lon="9.551177875729454"><ele>65.14285714285714</ele><time>2026-03-24T15:53:15Z</time></trkpt><trkpt lat="45.045412490431865" lon="9.551177199514536"><ele>65.42857142857143</ele><time>2026-03-24T15:53:20Z</time></trkpt><trkpt lat="45.04534076092527" lon="9.551188298664712"><ele>65.71428571428571</ele><time>2026-03-24T15:53:25Z</time></trkpt><trkpt lat="45.045267276347445" lon="9.551217549635101"><ele>66.0</ele><time>2026-03-24T15:53:30Z</time></trkpt><trkpt lat="45.045201948513984" lon="9.551229515980937"><ele>66.14285714285714</ele><time>2026-03-24T15:53:35Z</time></trkpt><trkpt lat="45.04513539831527" lon="9.551230373186694"><ele>66.28571428571429</ele><time>2026-03-24T15:53:39Z</time></trkpt><trkpt lat="45.04506577835814" lon="9.551239352482309"><ele>66.42857142857143</ele><time>2026-03-24T15:53:44Z</time></trkpt><trkpt lat="45.04499826280401" lon="9.551259190211923"><ele>66.57142857142857</ele><time>2026-03-24T15:53:49Z</time></trkpt><trkpt lat="45.044929314454386" lon="9.551262624141604"><ele>66.71428571428571</ele><time>2026-03-24T15:53:54Z</time></trkpt><trkpt lat="45.04486087141822" lon="9.551264828746056"><ele>66.85714285714286</ele><time>2026-03-24T15:53:59Z</time></trkpt><trkpt lat="45.044797857617425" lon="9.551266969657883"><ele>67.0</ele><time>2026-03-24T15:54:03Z</time></trkpt><trkpt lat="45.04472587572763" lon="9.551279844105762"><ele>67.14285714285714</ele><time>2026-03-24T15:54:08Z</time></trkpt><trkpt lat="45.04465412040511" lon="9.551299834367647"><ele>67.28571428571428</ele><time>2026-03-24T15:54:13Z</time></trkpt><trkpt lat="45.044583530391016" lon="9.551319750355082"><ele>67.42857142857142</ele><time>2026-03-24T15:54:18Z</time></trkpt><trkpt lat="45.04451406490107" lon="9.55133398011897"><ele>67.57142857142857</ele><time>2026-03-24T15:54:23Z</time></trkpt><trkpt lat="45.04444409011721" lon="9.551341387419516"><ele>67.71428571428571</ele><time>2026-03-24T15:54:28Z</time></trkpt><trkpt lat="45.04438032425064" lon="9.551341852653097"><ele>67.85714285714285</ele><time>2026-03-24T15:54:32Z</time></trkpt><trkpt lat="45.044306371844165" lon="9.551334556206749"><ele>68.0</ele><time>2026-03-24T15:54:37Z</time></trkpt><trkpt lat="45.04423115526596" lon="9.551349923140577"><ele>67.99999999999999</ele><time>2026-03-24T15:54:42Z</time></trkpt><trkpt lat="45.04416453438861" lon="9.551373153819474"><ele>68.0</ele><time>2026-03-24T15:54:47Z</time></trkpt><trkpt lat="45.04409007321495" lon="9.551374738442638"><ele>68.0</ele><time>2026-03-24T15:54:51.999Z</time></trkpt><trkpt lat="45.0440216024436" lon="9.551391039241611"><ele>68.0</ele><time>2026-03-24T15:54:56.999Z</time></trkpt><trkpt lat="45.043950733130124" lon="9.551402140010229"><ele>68.0</ele><time>2026-03-24T15:55:01.999Z</time></trkpt><trkpt lat="45.04388488731046" lon="9.551422484173234"><ele>67.99999999999999</ele><time>2026-03-24T15:55:07Z</time></trkpt><trkpt lat="45.04381195921306" lon="9.551432040790731"><ele>68.0</ele><time>2026-03-24T15:55:12Z</time></trkpt><trkpt lat="45.043734081308905" lon="9.551440375253769"><ele>67.85714285714285</ele><time>2026-03-24T15:55:17Z</time></trkpt><trkpt lat="45.043667805572674" lon="9.551445710112137"><ele>67.71428571428571</ele><time>2026-03-24T15:55:22Z</time></trkpt><trkpt lat="45.04358991605231" lon="9.551455009803792"><ele>67.57142857142857</ele><time>2026-03-24T15:55:27Z</time></trkpt><trkpt lat="45.0435166248273" lon="9.551467184908491"><ele>67.42857142857142</ele><time>2026-03-24T15:55:32Z</time></trkpt><trkpt lat="45.04344646055054" lon="9.551480526913762"><ele>67.28571428571428</ele><time>2026-03-24T15:55:37Z</time></trkpt><trkpt lat="45.04337353139531" lon="9.55148549521302"><ele>67.14285714285714</ele><time>2026-03-24T15:55:42Z</time></trkpt><trkpt lat="45.043304177974036" lon="9.551514473871576"><ele>67.0</ele><time>2026-03-24T15:55:47Z</time></trkpt><trkpt lat="45.04323191093452" lon="9.551526091762518"><ele>67.0</ele><time>2026-03-24T15:55:52Z</time></trkpt><trkpt lat="45.0431656367161" lon="9.551543082783645"><ele>67.0</ele><time>2026-03-24T15:55:57Z</time></trkpt><trkpt lat="45.04309059123803" lon="9.551544557150773"><ele>67.0</ele><time>2026-03-24T15:56:02Z</time></trkpt><trkpt lat="45.04301938168681" lon="9.551552488990431"><ele>67.0</ele><time>2026-03-24T15:56:07Z</time></trkpt><trkpt lat="45.04294645927509" lon="9.551572801953697"><ele>67.0</ele><time>2026-03-24T15:56:12Z</time></trkpt><trkpt lat="45.042878257240304" lon="9.551589546681422"><ele>67.0</ele><time>2026-03-24T15:56:17Z</time></trkpt><trkpt lat="45.042804392359294" lon="9.551577161466765"><ele>67.0</ele><time>2026-03-24T15:56:22Z</time></trkpt><trkpt lat="45.042731105268594" lon="9.551588847345757"><ele>67.0</ele><time>2026-03-24T15:56:27Z</time></trkpt><trkpt lat="45.04265790779131" lon="9.551587987510512"><ele>67.0</ele><time>2026-03-24T15:56:32Z</time></trkpt><trkpt lat="45.0425845558326" lon="9.551613490265552"><ele>67.0</ele><time>2026-03-24T15:56:37Z</time></trkpt><trkpt lat="45.042514985542866" lon="9.551624552567398"><ele>67.0</ele><time>2026-03-24T15:56:42Z</time></trkpt><trkpt lat="45.042449012951096" lon="9.551632547024159"><ele>67.0</ele><time>2026-03-24T15:56:47Z</time></trkpt><trkpt lat="45.042377354676766" lon="9.551640410608599"><ele>67.0</ele><time>2026-03-24T15:56:52Z</time></trkpt><trkpt lat="45.04230667705567" lon="9.551644220291088"><ele>67.0</ele><time>2026-03-24T15:56:57Z</time></trkpt><trkpt lat="45.0422330054286" lon="9.55165649198236"><ele>67.14285714285714</ele><time>2026-03-24T15:57:01.999Z</time></trkpt><trkpt lat="45.042160467945216" lon="9.551668026217742"><ele>67.28571428571428</ele><time>2026-03-24T15:57:06.999Z</time></trkpt><trkpt lat="45.04208849747812" lon="9.551682571651918"><ele>67.42857142857142</ele><time>2026-03-24T15:57:12Z</time></trkpt><trkpt lat="45.04201663573728" lon="9.55169926536852"><ele>67.57142857142857</ele><time>2026-03-24T15:57:17Z</time></trkpt><trkpt lat="45.04194521124001" lon="9.55169481984598"><ele>67.71428571428571</ele><time>2026-03-24T15:57:22Z</time></trkpt><trkpt lat="45.04187634890783" lon="9.55170813707412"><ele>67.85714285714285</ele><time>2026-03-24T15:57:28Z</time></trkpt><trkpt lat="45.041812482450034" lon="9.551725313588458"><ele>68.0</ele><time>2026-03-24T15:57:32Z</time></trkpt><trkpt lat="45.041742993376275" lon="9.551729094255043"><ele>67.99999999999999</ele><time>2026-03-24T15:57:37Z</time></trkpt><trkpt lat="45.04168155390441" lon="9.551755160763658"><ele>68.0</ele><time>2026-03-24T15:57:41Z</time></trkpt><trkpt lat="45.04161281085643" lon="9.551761709550519"><ele>68.0</ele><time>2026-03-24T15:57:46Z</time></trkpt><trkpt lat="45.041540892794984" lon="9.551766155956127"><ele>68.0</ele><time>2026-03-24T15:57:51Z</time></trkpt><trkpt lat="45.041468350168536" lon="9.551775890819469"><ele>68.0</ele><time>2026-03-24T15:57:56Z</time></trkpt><trkpt lat="45.041401604201994" lon="9.551794308141819"><ele>67.99999999999999</ele><time>2026-03-24T15:58:01Z</time></trkpt><trkpt lat="45.041329114340684" lon="9.551796554547327"><ele>68.0</ele><time>2026-03-24T15:58:06Z</time></trkpt><trkpt lat="45.04126396134306" lon="9.551797592101718"><ele>67.99999999999999</ele><time>2026-03-24T15:58:10Z</time></trkpt><trkpt lat="45.04118949096274" lon="9.551816922888198"><ele>68.0</ele><time>2026-03-24T15:58:15Z</time></trkpt><trkpt lat="45.04111866826876" lon="9.551825506184544"><ele>68.0</ele><time>2026-03-24T15:58:20Z</time></trkpt><trkpt lat="45.04105439744861" lon="9.55182370034997"><ele>68.0</ele><time>2026-03-24T15:58:24Z</time></trkpt><trkpt lat="45.04098596216869" lon="9.551841637708993"><ele>68.0</ele><time>2026-03-24T15:58:29Z</time></trkpt><trkpt lat="45.040923411647654" lon="9.551864644591772"><ele>67.99999999999999</ele><time>2026-03-24T15:58:33Z</time></trkpt><trkpt lat="45.040867158347645" lon="9.551922250344317"><ele>68.0</ele><time>2026-03-24T15:58:38Z</time></trkpt><trkpt lat="45.0408467079678" lon="9.552011390760946"><ele>68.28571428571428</ele><time>2026-03-24T15:58:42Z</time></trkpt><trkpt lat="45.040788598256206" lon="9.552066362692877"><ele>68.57142857142857</ele><time>2026-03-24T15:58:47Z</time></trkpt><trkpt lat="45.040720639501124" lon="9.55207646981068"><ele>68.85714285714286</ele><time>2026-03-24T15:58:52Z</time></trkpt><trkpt lat="45.040650021412176" lon="9.55204901360981"><ele>69.14285714285714</ele><time>2026-03-24T15:58:57Z</time></trkpt><trkpt lat="45.04058267038253" lon="9.552066951743436"><ele>69.42857142857143</ele><time>2026-03-24T15:59:02Z</time></trkpt><trkpt lat="45.04053490884848" lon="9.552141975742671"><ele>69.71428571428571</ele><time>2026-03-24T15:59:07Z</time></trkpt><trkpt lat="45.040536743094215" lon="9.55224261652124"><ele>70.0</ele><time>2026-03-24T15:59:11Z</time></trkpt><trkpt lat="45.04055276371137" lon="9.552341807231114"><ele>70.0</ele><time>2026-03-24T15:59:14.999Z</time></trkpt><trkpt lat="45.04057607518852" lon="9.552436121100824"><ele>70.0</ele><time>2026-03-24T15:59:19Z</time></trkpt><trkpt lat="45.04057154693071" lon="9.552537994435104"><ele>70.0</ele><time>2026-03-24T15:59:23Z</time></trkpt><trkpt lat="45.04057952195102" lon="9.552630044744548"><ele>70.0</ele><time>2026-03-24T15:59:27Z</time></trkpt><trkpt lat="45.04058339211541" lon="9.552726849357027"><ele>70.0</ele><time>2026-03-24T15:59:32Z</time></trkpt><trkpt lat="45.04059459270451" lon="9.552825339683627"><ele>70.0</ele><time>2026-03-24T15:59:37Z</time></trkpt><trkpt lat="45.04059586750727" lon="9.552929261058386"><ele>70.0</ele><time>2026-03-24T15:59:42Z</time></trkpt><trkpt lat="45.04062351371816" lon="9.55303941644052"><ele>69.85714285714286</ele><time>2026-03-24T15:59:48Z</time></trkpt><trkpt lat="45.04067316171822" lon="9.553118492846044"><ele>69.71428571428572</ele><time>2026-03-24T15:59:52Z</time></trkpt><trkpt lat="45.0407223410402" lon="9.553186236232733"><ele>69.57142857142857</ele><time>2026-03-24T15:59:56Z</time></trkpt><trkpt lat="45.04073173782356" lon="9.553274544633307"><ele>69.42857142857143</ele><time>2026-03-24T16:00:00Z</time></trkpt><trkpt lat="45.04075933041201" lon="9.553366974233093"><ele>69.28571428571429</ele><time>2026-03-24T16:00:05Z</time></trkpt><trkpt lat="45.040779889211265" lon="9.55345371063747"><ele>69.14285714285714</ele><time>2026-03-24T16:00:09Z</time></trkpt><trkpt lat="45.040802918774816" lon="9.553560551354465"><ele>69.0</ele><time>2026-03-24T16:00:14Z</time></trkpt><trkpt lat="45.04084419212625" lon="9.553643794116443"><ele>69.14285714285714</ele><time>2026-03-24T16:00:19Z</time></trkpt><trkpt lat="45.040839719525536" lon="9.553743204595408"><ele>69.28571428571429</ele><time>2026-03-24T16:00:25Z</time></trkpt><trkpt lat="45.040864003916155" lon="9.553838223124828"><ele>69.42857142857143</ele><time>2026-03-24T16:00:31Z</time></trkpt><trkpt lat="45.040870606599064" lon="9.553936658714472"><ele>69.57142857142857</ele><time>2026-03-24T16:00:36Z</time></trkpt><trkpt lat="45.040873941700255" lon="9.554035330196518"><ele>69.71428571428572</ele><time>2026-03-24T16:00:41Z</time></trkpt><trkpt lat="45.040891926808825" lon="9.554134445408446"><ele>69.85714285714286</ele><time>2026-03-24T16:00:46Z</time></trkpt><trkpt lat="45.04091588914116" lon="9.554234520900422"><ele>70.0</ele><time>2026-03-24T16:00:51Z</time></trkpt><trkpt lat="45.04094337046705" lon="9.554336156976433"><ele>70.0</ele><time>2026-03-24T16:00:56Z</time></trkpt><trkpt lat="45.04094583769344" lon="9.554446275396602"><ele>70.0</ele><time>2026-03-24T16:01:02Z</time></trkpt><trkpt lat="45.040946966746105" lon="9.554538883832388"><ele>70.0</ele><time>2026-03-24T16:01:07Z</time></trkpt><trkpt lat="45.04097595272141" lon="9.554626537774332"><ele>70.0</ele><time>2026-03-24T16:01:11Z</time></trkpt><trkpt lat="45.04097948436662" lon="9.55472097539259"><ele>70.0</ele><time>2026-03-24T16:01:16Z</time></trkpt><trkpt lat="45.040976242676145" lon="9.554828354928135"><ele>70.0</ele><time>2026-03-24T16:01:21Z</time></trkpt><trkpt lat="45.04098124057303" lon="9.554932443027152"><ele>70.0</ele><time>2026-03-24T16:01:26Z</time></trkpt><trkpt lat="45.04098674025119" lon="9.555035661415728"><ele>69.85714285714286</ele><time>2026-03-24T16:01:31Z</time></trkpt><trkpt lat="45.04097972196179" lon="9.555134083859205"><ele>69.71428571428572</ele><time>2026-03-24T16:01:36Z</time></trkpt><trkpt lat="45.04097672411369" lon="9.555231240288586"><ele>69.57142857142857</ele><time>2026-03-24T16:01:41Z</time></trkpt><trkpt lat="45.04097195670368" lon="9.555333550146637"><ele>69.42857142857143</ele><time>2026-03-24T16:01:46Z</time></trkpt><trkpt lat="45.040976130836086" lon="9.555435739253339"><ele>69.28571428571429</ele><time>2026-03-24T16:02:14Z</time></trkpt><trkpt lat="45.040975326477145" lon="9.55553361535067"><ele>69.14285714285714</ele><time>2026-03-24T16:02:19Z</time></trkpt><trkpt lat="45.04095888539994" lon="9.555633565488737"><ele>69.0</ele><time>2026-03-24T16:02:25Z</time></trkpt><trkpt lat="45.04094662899534" lon="9.555725172399933"><ele>68.85714285714286</ele><time>2026-03-24T16:02:29Z</time></trkpt><trkpt lat="45.04094724150229" lon="9.555834796947732"><ele>68.71428571428572</ele><time>2026-03-24T16:02:34Z</time></trkpt><trkpt lat="45.040938348738095" lon="9.55594072109394"><ele>68.57142857142857</ele><time>2026-03-24T16:02:39Z</time></trkpt><trkpt lat="45.0409322062906" lon="9.556031987206492"><ele>68.42857142857143</ele><time>2026-03-24T16:02:43Z</time></trkpt><trkpt lat="45.04092352200515" lon="9.556131351294265"><ele>68.28571428571428</ele><time>2026-03-24T16:02:48Z</time></trkpt><trkpt lat="45.04090087366335" lon="9.556219061090797"><ele>68.14285714285714</ele><time>2026-03-24T16:02:53Z</time></trkpt><trkpt lat="45.04089748915544" lon="9.556316527887194"><ele>68.0</ele><time>2026-03-24T16:02:58Z</time></trkpt><trkpt lat="45.04088768333252" lon="9.556409136908151"><ele>67.71428571428571</ele><time>2026-03-24T16:03:03Z</time></trkpt><trkpt lat="45.04089062126796" lon="9.55650566365262"><ele>67.42857142857143</ele><time>2026-03-24T16:03:07Z</time></trkpt><trkpt lat="45.04087340026355" lon="9.556606768805871"><ele>67.14285714285714</ele><time>2026-03-24T16:03:12Z</time></trkpt><trkpt lat="45.040858914130375" lon="9.55671325025145"><ele>66.85714285714286</ele><time>2026-03-24T16:03:18Z</time></trkpt><trkpt lat="45.040842059393206" lon="9.556805393698419"><ele>66.57142857142857</ele><time>2026-03-24T16:03:22.999Z</time></trkpt><trkpt lat="45.040826208590204" lon="9.556912841398358"><ele>66.28571428571428</ele><time>2026-03-24T16:03:27.999Z</time></trkpt><trkpt lat="45.0408199474643" lon="9.557010542237467"><ele>66.0</ele><time>2026-03-24T16:03:33Z</time></trkpt><trkpt lat="45.040805276060915" lon="9.55710948510927"><ele>66.0</ele><time>2026-03-24T16:03:38Z</time></trkpt><trkpt lat="45.04079243663821" lon="9.557221145592402"><ele>66.0</ele><time>2026-03-24T16:03:43Z</time></trkpt><trkpt lat="45.04077473455882" lon="9.557322350185762"><ele>66.0</ele><time>2026-03-24T16:03:48Z</time></trkpt><trkpt lat="45.04079881569693" lon="9.55741261883455"><ele>66.0</ele><time>2026-03-24T16:03:53Z</time></trkpt><trkpt lat="45.04083694513721" lon="9.557497196934417"><ele>66.0</ele><time>2026-03-24T16:03:58Z</time></trkpt><trkpt lat="45.04083858107615" lon="9.55759232996073"><ele>66.0</ele><time>2026-03-24T16:04:03Z</time></trkpt><trkpt lat="45.04082361935428" lon="9.557679961734445"><ele>66.0</ele><time>2026-03-24T16:04:07Z</time></trkpt><trkpt lat="45.040795223617465" lon="9.557768677639086"><ele>66.0</ele><time>2026-03-24T16:04:12Z</time></trkpt><trkpt lat="45.04078305834003" lon="9.557865965716848"><ele>66.0</ele><time>2026-03-24T16:04:18Z</time></trkpt><trkpt lat="45.04076976021945" lon="9.557975210959773"><ele>66.0</ele><time>2026-03-24T16:04:23Z</time></trkpt><trkpt lat="45.04074548866636" lon="9.558073254051882"><ele>66.0</ele><time>2026-03-24T16:04:28Z</time></trkpt><trkpt lat="45.040733174648715" lon="9.558172532147223"><ele>66.0</ele><time>2026-03-24T16:04:33Z</time></trkpt><trkpt lat="45.04072036470274" lon="9.558275052303015"><ele>66.0</ele><time>2026-03-24T16:04:38Z</time></trkpt><trkpt lat="45.04070867507542" lon="9.558377413419858"><ele>66.0</ele><time>2026-03-24T16:04:43Z</time></trkpt><trkpt lat="45.04069707822095" lon="9.558473420375332"><ele>65.85714285714286</ele><time>2026-03-24T16:04:48Z</time></trkpt><trkpt lat="45.04067275157427" lon="9.558569049703685"><ele>65.71428571428572</ele><time>2026-03-24T16:04:53Z</time></trkpt><trkpt lat="45.04066727489855" lon="9.558673661787518"><ele>65.57142857142858</ele><time>2026-03-24T16:04:58Z</time></trkpt><trkpt lat="45.04065369825877" lon="9.558764892647575"><ele>65.42857142857143</ele><time>2026-03-24T16:05:03Z</time></trkpt><trkpt lat="45.040640457683566" lon="9.558865805979853"><ele>65.28571428571429</ele><time>2026-03-24T16:05:08Z</time></trkpt><trkpt lat="45.040632270274656" lon="9.558963693639058"><ele>65.14285714285715</ele><time>2026-03-24T16:05:13Z</time></trkpt><trkpt lat="45.04062688151726" lon="9.55906662894097"><ele>65.0</ele><time>2026-03-24T16:05:18Z</time></trkpt><trkpt lat="45.040604767513365" lon="9.559162306971125"><ele>65.28571428571429</ele><time>2026-03-24T16:05:23Z</time></trkpt><trkpt lat="45.04054372011798" lon="9.559138073749565"><ele>65.57142857142857</ele><time>2026-03-24T16:05:29Z</time></trkpt><trkpt lat="45.04052488518312" lon="9.55924152674414"><ele>65.85714285714286</ele><time>2026-03-24T16:05:34Z</time></trkpt><trkpt lat="45.04053164119869" lon="9.55934411484906"><ele>66.14285714285714</ele><time>2026-03-24T16:05:40Z</time></trkpt><trkpt lat="45.040549706048694" lon="9.55943197808724"><ele>66.42857142857143</ele><time>2026-03-24T16:05:44Z</time></trkpt><trkpt lat="45.04057807165316" lon="9.559514628985712"><ele>66.71428571428572</ele><time>2026-03-24T16:05:48Z</time></trkpt><trkpt lat="45.04058986618582" lon="9.559613928218738"><ele>67.0</ele><time>2026-03-24T16:05:53Z</time></trkpt><trkpt lat="45.04061695947448" lon="9.55971060486563"><ele>67.0</ele><time>2026-03-24T16:05:58Z</time></trkpt><trkpt lat="45.04063212281492" lon="9.55981214699997"><ele>67.0</ele><time>2026-03-24T16:06:03Z</time></trkpt><trkpt lat="45.04066280186752" lon="9.559902792635187"><ele>67.0</ele><time>2026-03-24T16:06:08Z</time></trkpt><trkpt lat="45.040691665455" lon="9.56000479249628"><ele>67.0</ele><time>2026-03-24T16:06:13Z</time></trkpt><trkpt lat="45.04070799821919" lon="9.560108139636068"><ele>67.0</ele><time>2026-03-24T16:06:18Z</time></trkpt><trkpt lat="45.040732965925386" lon="9.560194743093035"><ele>67.0</ele><time>2026-03-24T16:06:23Z</time></trkpt><trkpt lat="45.0407761619349" lon="9.560263842970736"><ele>67.0</ele><time>2026-03-24T16:06:38Z</time></trkpt><trkpt lat="45.040794992699574" lon="9.560366766029489"><ele>66.71428571428572</ele><time>2026-03-24T16:06:43Z</time></trkpt><trkpt lat="45.040801928182894" lon="9.560460770022852"><ele>66.42857142857143</ele><time>2026-03-24T16:06:47Z</time></trkpt><trkpt lat="45.04083300082184" lon="9.560558410845367"><ele>66.14285714285714</ele><time>2026-03-24T16:06:52Z</time></trkpt><trkpt lat="45.04086682804117" lon="9.560635141414082"><ele>65.85714285714286</ele><time>2026-03-24T16:06:57Z</time></trkpt><trkpt lat="45.0408882488553" lon="9.560724950135882"><ele>65.57142857142857</ele><time>2026-03-24T16:07:02Z</time></trkpt><trkpt lat="45.04090522002401" lon="9.560812403182732"><ele>65.28571428571429</ele><time>2026-03-24T16:07:07Z</time></trkpt><trkpt lat="45.040928393212404" lon="9.56090068215272"><ele>65.0</ele><time>2026-03-24T16:07:12Z</time></trkpt><trkpt lat="45.04094999826633" lon="9.561003552836903"><ele>65.00000000000001</ele><time>2026-03-24T16:07:17Z</time></trkpt><trkpt lat="45.04099070757803" lon="9.561072156474731"><ele>65.0</ele><time>2026-03-24T16:07:21Z</time></trkpt><trkpt lat="45.04100400060636" lon="9.561177985834968"><ele>65.0</ele><time>2026-03-24T16:07:26Z</time></trkpt><trkpt lat="45.04103298875003" lon="9.561269576556624"><ele>65.0</ele><time>2026-03-24T16:07:30.999Z</time></trkpt><trkpt lat="45.041053713966114" lon="9.561362238049856"><ele>65.0</ele><time>2026-03-24T16:07:35.999Z</time></trkpt><trkpt lat="45.04107131645983" lon="9.56145902870178"><ele>65.00000000000001</ele><time>2026-03-24T16:07:40.999Z</time></trkpt><trkpt lat="45.0410967708271" lon="9.56156291132072"><ele>65.0</ele><time>2026-03-24T16:07:46Z</time></trkpt><trkpt lat="45.04111936680134" lon="9.561665604441323"><ele>65.00000000000001</ele><time>2026-03-24T16:07:51Z</time></trkpt><trkpt lat="45.04115213031704" lon="9.561764452946742"><ele>65.0</ele><time>2026-03-24T16:07:56Z</time></trkpt><trkpt lat="45.04118410862573" lon="9.561857167923984"><ele>65.0</ele><time>2026-03-24T16:08:05Z</time></trkpt><trkpt lat="45.0412006531428" lon="9.561959551176379"><ele>65.0</ele><time>2026-03-24T16:08:10Z</time></trkpt><trkpt lat="45.04122177982038" lon="9.562053971539546"><ele>65.0</ele><time>2026-03-24T16:08:15Z</time></trkpt><trkpt lat="45.04123664657763" lon="9.562163399128274"><ele>65.00000000000001</ele><time>2026-03-24T16:08:20Z</time></trkpt><trkpt lat="45.041269167558475" lon="9.562254555389538"><ele>65.0</ele><time>2026-03-24T16:08:25Z</time></trkpt><trkpt lat="45.0412788347823" lon="9.56235616224917"><ele>64.85714285714286</ele><time>2026-03-24T16:08:30Z</time></trkpt><trkpt lat="45.04130587224031" lon="9.562454963904106"><ele>64.71428571428572</ele><time>2026-03-24T16:08:35Z</time></trkpt><trkpt lat="45.041316288974535" lon="9.56255259494096"><ele>64.57142857142857</ele><time>2026-03-24T16:08:40Z</time></trkpt><trkpt lat="45.0413383076319" lon="9.562637286737376"><ele>64.42857142857143</ele><time>2026-03-24T16:08:44Z</time></trkpt><trkpt lat="45.04136198480907" lon="9.562734914122824"><ele>64.28571428571428</ele><time>2026-03-24T16:08:49Z</time></trkpt><trkpt lat="45.04138803775497" lon="9.562834773341898"><ele>64.14285714285714</ele><time>2026-03-24T16:08:54Z</time></trkpt><trkpt lat="45.04141141552558" lon="9.562934724278545"><ele>64.0</ele><time>2026-03-24T16:08:59Z</time></trkpt><trkpt lat="45.04144674140361" lon="9.563022851931075"><ele>64.0</ele><time>2026-03-24T16:09:04Z</time></trkpt><trkpt lat="45.04144670511359" lon="9.563112196744756"><ele>63.99999999999999</ele><time>2026-03-24T16:09:08Z</time></trkpt><trkpt lat="45.04146723818863" lon="9.563215967388812"><ele>64.0</ele><time>2026-03-24T16:09:13Z</time></trkpt><trkpt lat="45.04149119634062" lon="9.56330512273176"><ele>64.0</ele><time>2026-03-24T16:09:18Z</time></trkpt><trkpt lat="45.04150350958886" lon="9.56340841510247"><ele>63.99999999999999</ele><time>2026-03-24T16:09:23Z</time></trkpt><trkpt lat="45.04152806969948" lon="9.563511713596096"><ele>64.0</ele><time>2026-03-24T16:09:28Z</time></trkpt><trkpt lat="45.0415592748271" lon="9.563604193143014"><ele>64.0</ele><time>2026-03-24T16:09:32.999Z</time></trkpt><trkpt lat="45.04157570806251" lon="9.563708236745027"><ele>64.14285714285714</ele><time>2026-03-24T16:09:37.999Z</time></trkpt><trkpt lat="45.041614039976444" lon="9.563796954524603"><ele>64.28571428571428</ele><time>2026-03-24T16:09:42.999Z</time></trkpt><trkpt lat="45.04163192414651" lon="9.563897525606519"><ele>64.42857142857143</ele><time>2026-03-24T16:09:48Z</time></trkpt><trkpt lat="45.041642800968035" lon="9.564002943575286"><ele>64.57142857142857</ele><time>2026-03-24T16:09:53Z</time></trkpt><trkpt lat="45.041668060911995" lon="9.564105657229272"><ele>64.71428571428572</ele><time>2026-03-24T16:09:58Z</time></trkpt><trkpt lat="45.041677260489" lon="9.564206889044183"><ele>64.85714285714286</ele><time>2026-03-24T16:10:03Z</time></trkpt><trkpt lat="45.04170974922947" lon="9.564286195743746"><ele>65.0</ele><time>2026-03-24T16:10:08Z</time></trkpt><trkpt lat="45.04174006642638" lon="9.564379105256831"><ele>65.00000000000001</ele><time>2026-03-24T16:10:13Z</time></trkpt><trkpt lat="45.04176443998683" lon="9.564478678990547"><ele>65.0</ele><time>2026-03-24T16:10:18Z</time></trkpt><trkpt lat="45.041786245657974" lon="9.564567331721106"><ele>65.0</ele><time>2026-03-24T16:10:23Z</time></trkpt><trkpt lat="45.04179538705434" lon="9.564657446311536"><ele>65.0</ele><time>2026-03-24T16:10:27Z</time></trkpt><trkpt lat="45.04181580791268" lon="9.564758224418615"><ele>65.0</ele><time>2026-03-24T16:10:32Z</time></trkpt><trkpt lat="45.04183569393223" lon="9.564851946195715"><ele>65.00000000000001</ele><time>2026-03-24T16:10:37Z</time></trkpt><trkpt lat="45.041862851818074" lon="9.564954561650266"><ele>65.0</ele><time>2026-03-24T16:10:42Z</time></trkpt><trkpt lat="45.04191788403875" lon="9.565010110202808"><ele>65.14285714285715</ele><time>2026-03-24T16:10:46Z</time></trkpt><trkpt lat="45.041950386648075" lon="9.565107853570543"><ele>65.28571428571429</ele><time>2026-03-24T16:10:51Z</time></trkpt><trkpt lat="45.041961946661836" lon="9.565205056636662"><ele>65.42857142857143</ele><time>2026-03-24T16:10:56Z</time></trkpt><trkpt lat="45.041993039848805" lon="9.565302890621629"><ele>65.57142857142858</ele><time>2026-03-24T16:11:01Z</time></trkpt><trkpt lat="45.04202914925998" lon="9.565375991465638"><ele>65.71428571428572</ele><time>2026-03-24T16:11:05Z</time></trkpt><trkpt lat="45.04204009490701" lon="9.565465765434741"><ele>65.85714285714286</ele><time>2026-03-24T16:11:09Z</time></trkpt><trkpt lat="45.042071921401536" lon="9.565545271831862"><ele>66.0</ele><time>2026-03-24T16:11:13Z</time></trkpt><trkpt lat="45.042107646117856" lon="9.565637889401936"><ele>66.0</ele><time>2026-03-24T16:11:18Z</time></trkpt><trkpt lat="45.04213790642207" lon="9.565720102517158"><ele>66.0</ele><time>2026-03-24T16:11:22.999Z</time></trkpt><trkpt lat="45.04216311451973" lon="9.56582270637002"><ele>66.0</ele><time>2026-03-24T16:11:27.999Z</time></trkpt><trkpt lat="45.04220860396251" lon="9.565905598691234"><ele>66.0</ele><time>2026-03-24T16:11:32.999Z</time></trkpt><trkpt lat="45.04224783420206" lon="9.565983704965753"><ele>66.0</ele><time>2026-03-24T16:11:37.999Z</time></trkpt><trkpt lat="45.042272890243524" lon="9.566070596212196"><ele>66.0</ele><time>2026-03-24T16:11:41.999Z</time></trkpt><trkpt lat="45.04230305512076" lon="9.566149237881858"><ele>66.0</ele><time>2026-03-24T16:11:45.999Z</time></trkpt><trkpt lat="45.04233803434068" lon="9.566246457857849"><ele>65.71428571428571</ele><time>2026-03-24T16:11:50.999Z</time></trkpt><trkpt lat="45.04236615443975" lon="9.566341987454184"><ele>65.42857142857143</ele><time>2026-03-24T16:11:56Z</time></trkpt><trkpt lat="45.04240901167301" lon="9.566431826876041"><ele>65.14285714285714</ele><time>2026-03-24T16:12:01Z</time></trkpt><trkpt lat="45.0424389416371" lon="9.566525159803755"><ele>64.85714285714286</ele><time>2026-03-24T16:12:06Z</time></trkpt><trkpt lat="45.0424881262568" lon="9.566592491302787"><ele>64.57142857142857</ele><time>2026-03-24T16:12:11Z</time></trkpt><trkpt lat="45.04252639569438" lon="9.566680386676246"><ele>64.28571428571428</ele><time>2026-03-24T16:12:16Z</time></trkpt><trkpt lat="45.042561169150865" lon="9.566767351718518"><ele>64.0</ele><time>2026-03-24T16:12:21Z</time></trkpt><trkpt lat="45.04259720497241" lon="9.566851027783512"><ele>64.0</ele><time>2026-03-24T16:12:26Z</time></trkpt><trkpt lat="45.042633893118335" lon="9.566940184620684"><ele>63.99999999999999</ele><time>2026-03-24T16:12:31Z</time></trkpt><trkpt lat="45.04266548542749" lon="9.567028707938602"><ele>64.0</ele><time>2026-03-24T16:12:36Z</time></trkpt><trkpt lat="45.04270852707832" lon="9.56709881112864"><ele>64.0</ele><time>2026-03-24T16:12:40Z</time></trkpt><trkpt lat="45.042757861052344" lon="9.56716623984081"><ele>63.99999999999999</ele><time>2026-03-24T16:12:45Z</time></trkpt><trkpt lat="45.04280238634763" lon="9.567245711309278"><ele>64.0</ele><time>2026-03-24T16:12:50Z</time></trkpt><trkpt lat="45.042851569149384" lon="9.567317771043658"><ele>64.0</ele><time>2026-03-24T16:12:55Z</time></trkpt><trkpt lat="45.04288076661891" lon="9.567398389941982"><ele>64.0</ele><time>2026-03-24T16:12:59Z</time></trkpt><trkpt lat="45.04291979406554" lon="9.5674721989443"><ele>63.99999999999999</ele><time>2026-03-24T16:13:03Z</time></trkpt><trkpt lat="45.0429642757529" lon="9.567560215983741"><ele>64.0</ele><time>2026-03-24T16:13:08Z</time></trkpt><trkpt lat="45.04300689765737" lon="9.56764047342336"><ele>64.0</ele><time>2026-03-24T16:13:13Z</time></trkpt><trkpt lat="45.0430464108698" lon="9.567712244591144"><ele>63.99999999999999</ele><time>2026-03-24T16:13:18Z</time></trkpt><trkpt lat="45.043095967157385" lon="9.567781743120445"><ele>64.0</ele><time>2026-03-24T16:13:23Z</time></trkpt><trkpt lat="45.0431517579554" lon="9.567881020598595"><ele>64.0</ele><time>2026-03-24T16:13:30Z</time></trkpt><trkpt lat="45.043196035502476" lon="9.56795270006758"><ele>64.0</ele><time>2026-03-24T16:13:35Z</time></trkpt><trkpt lat="45.04322794740722" lon="9.568037675498015"><ele>63.99999999999999</ele><time>2026-03-24T16:14:03Z</time></trkpt><trkpt lat="45.04327454931106" lon="9.568124946644263"><ele>64.0</ele><time>2026-03-24T16:14:08Z</time></trkpt><trkpt lat="45.04330342522181" lon="9.568222608733999"><ele>64.0</ele><time>2026-03-24T16:14:13Z</time></trkpt><trkpt lat="45.0433459402965" lon="9.568288450935091"><ele>63.99999999999999</ele><time>2026-03-24T16:14:17Z</time></trkpt><trkpt lat="45.043380509010845" lon="9.568367722982437"><ele>64.0</ele><time>2026-03-24T16:14:21Z</time></trkpt><trkpt lat="45.043402683751346" lon="9.568453184164198"><ele>64.0</ele><time>2026-03-24T16:14:25Z</time></trkpt><trkpt lat="45.04343912241218" lon="9.568537919120365"><ele>64.14285714285714</ele><time>2026-03-24T16:14:30Z</time></trkpt><trkpt lat="45.04347926502731" lon="9.568617707610587"><ele>64.28571428571428</ele><time>2026-03-24T16:14:34Z</time></trkpt><trkpt lat="45.043516425664265" lon="9.568707259418685"><ele>64.42857142857143</ele><time>2026-03-24T16:14:39Z</time></trkpt><trkpt lat="45.04355583140497" lon="9.568780210086747"><ele>64.57142857142857</ele><time>2026-03-24T16:14:44Z</time></trkpt><trkpt lat="45.043585694540084" lon="9.56887917343109"><ele>64.71428571428572</ele><time>2026-03-24T16:14:49Z</time></trkpt><trkpt lat="45.043621742399324" lon="9.568957252395013"><ele>64.85714285714286</ele><time>2026-03-24T16:14:53Z</time></trkpt><trkpt lat="45.043676068932555" lon="9.569031196414397"><ele>65.0</ele><time>2026-03-24T16:14:58Z</time></trkpt><trkpt lat="45.04370337220131" lon="9.569120922217287"><ele>64.71428571428572</ele><time>2026-03-24T16:15:03Z</time></trkpt><trkpt lat="45.04373782559456" lon="9.569210823156794"><ele>64.42857142857143</ele><time>2026-03-24T16:15:08Z</time></trkpt><trkpt lat="45.04377584691497" lon="9.569288451768704"><ele>64.14285714285714</ele><time>2026-03-24T16:15:12.999Z</time></trkpt><trkpt lat="45.04381486443951" lon="9.569373962114925"><ele>63.85714285714286</ele><time>2026-03-24T16:15:17.999Z</time></trkpt><trkpt lat="45.043864877225616" lon="9.569461077621787"><ele>63.57142857142857</ele><time>2026-03-24T16:15:22.999Z</time></trkpt><trkpt lat="45.04390495069885" lon="9.569556216647218"><ele>63.285714285714285</ele><time>2026-03-24T16:15:27.999Z</time></trkpt><trkpt lat="45.04394189864877" lon="9.569633554006606"><ele>63.0</ele><time>2026-03-24T16:15:32.999Z</time></trkpt><trkpt lat="45.043970861979766" lon="9.569724869083796"><ele>63.14285714285714</ele><time>2026-03-24T16:15:37.999Z</time></trkpt><trkpt lat="45.04402136018612" lon="9.569801158491607"><ele>63.285714285714285</ele><time>2026-03-24T16:15:42.999Z</time></trkpt><trkpt lat="45.04406738648995" lon="9.569880011516391"><ele>63.42857142857143</ele><time>2026-03-24T16:15:47.999Z</time></trkpt><trkpt lat="45.04409979334593" lon="9.569972480563543"><ele>63.57142857142857</ele><time>2026-03-24T16:15:52.999Z</time></trkpt><trkpt lat="45.044139497644046" lon="9.57004862674416"><ele>63.71428571428571</ele><time>2026-03-24T16:15:56.999Z</time></trkpt><trkpt lat="45.04417429543021" lon="9.570134024407261"><ele>63.857142857142854</ele><time>2026-03-24T16:16:01.999Z</time></trkpt><trkpt lat="45.044214349460695" lon="9.570205678091517"><ele>64.0</ele><time>2026-03-24T16:16:06Z</time></trkpt><trkpt lat="45.04425806795716" lon="9.570275742388983"><ele>64.0</ele><time>2026-03-24T16:16:11Z</time></trkpt><trkpt lat="45.04430742708813" lon="9.570358798774365"><ele>63.99999999999999</ele><time>2026-03-24T16:16:17Z</time></trkpt><trkpt lat="45.04435642684074" lon="9.570425216020585"><ele>64.0</ele><time>2026-03-24T16:16:22Z</time></trkpt><trkpt lat="45.04439415399803" lon="9.570497690429578"><ele>64.0</ele><time>2026-03-24T16:16:26Z</time></trkpt><trkpt lat="45.044429692690386" lon="9.570582049570469"><ele>63.99999999999999</ele><time>2026-03-24T16:16:30Z</time></trkpt><trkpt lat="45.044474233876606" lon="9.570666435606988"><ele>64.0</ele><time>2026-03-24T16:16:35Z</time></trkpt><trkpt lat="45.04451527080298" lon="9.570736595146942"><ele>64.0</ele><time>2026-03-24T16:16:39Z</time></trkpt><trkpt lat="45.04455475135512" lon="9.57081829679052"><ele>64.0</ele><time>2026-03-24T16:16:44Z</time></trkpt><trkpt lat="45.04460038526947" lon="9.570910290280379"><ele>63.99999999999999</ele><time>2026-03-24T16:16:49Z</time></trkpt><trkpt lat="45.04462975440041" lon="9.570992041860167"><ele>64.0</ele><time>2026-03-24T16:16:54Z</time></trkpt><trkpt lat="45.04468608695586" lon="9.571063385609985"><ele>64.0</ele><time>2026-03-24T16:16:59Z</time></trkpt><trkpt lat="45.04473695566528" lon="9.571132298671028"><ele>63.99999999999999</ele><time>2026-03-24T16:17:04Z</time></trkpt><trkpt lat="45.04476874418028" lon="9.57121276003537"><ele>64.0</ele><time>2026-03-24T16:17:09Z</time></trkpt><trkpt lat="45.044786948097176" lon="9.571307657827427"><ele>64.0</ele><time>2026-03-24T16:17:14Z</time></trkpt><trkpt lat="45.044802240976956" lon="9.571402685087492"><ele>63.857142857142854</ele><time>2026-03-24T16:17:19Z</time></trkpt><trkpt lat="45.044799949175705" lon="9.571501087577008"><ele>63.71428571428571</ele><time>2026-03-24T16:17:24Z</time></trkpt><trkpt lat="45.04478419286798" lon="9.571598744309433"><ele>63.57142857142857</ele><time>2026-03-24T16:17:29Z</time></trkpt><trkpt lat="45.044775445145625" lon="9.57170110372696"><ele>63.42857142857143</ele><time>2026-03-24T16:17:34Z</time></trkpt><trkpt lat="45.04476197913404" lon="9.571790505506911"><ele>63.285714285714285</ele><time>2026-03-24T16:17:39Z</time></trkpt><trkpt lat="45.044752460577236" lon="9.571894390021624"><ele>63.14285714285714</ele><time>2026-03-24T16:17:44Z</time></trkpt><trkpt lat="45.04475320291858" lon="9.571983646612113"><ele>63.0</ele><time>2026-03-24T16:17:48Z</time></trkpt><trkpt lat="45.04473309290676" lon="9.572088664685554"><ele>63.0</ele><time>2026-03-24T16:17:53Z</time></trkpt><trkpt lat="45.044716796778914" lon="9.572182995757725"><ele>63.0</ele><time>2026-03-24T16:17:58Z</time></trkpt><trkpt lat="45.044714973172795" lon="9.572292968057676"><ele>63.0</ele><time>2026-03-24T16:18:02.999Z</time></trkpt><trkpt lat="45.044705148425194" lon="9.572387091438294"><ele>63.0</ele><time>2026-03-24T16:18:07.999Z</time></trkpt><trkpt lat="45.044685982962875" lon="9.57248871834084"><ele>63.0</ele><time>2026-03-24T16:18:13Z</time></trkpt><trkpt lat="45.04467326576047" lon="9.572582972055411"><ele>63.0</ele><time>2026-03-24T16:18:18Z</time></trkpt><trkpt lat="45.044672177717956" lon="9.572683363365904"><ele>63.0</ele><time>2026-03-24T16:18:23Z</time></trkpt><trkpt lat="45.04467893608578" lon="9.57279237576766"><ele>63.0</ele><time>2026-03-24T16:18:28Z</time></trkpt><trkpt lat="45.044707430514016" lon="9.572883678451165"><ele>63.0</ele><time>2026-03-24T16:18:32Z</time></trkpt><trkpt lat="45.04472942955029" lon="9.572988707594227"><ele>63.0</ele><time>2026-03-24T16:18:37Z</time></trkpt><trkpt lat="45.04475563649872" lon="9.573089457074676"><ele>63.0</ele><time>2026-03-24T16:18:42Z</time></trkpt><trkpt lat="45.044792350870715" lon="9.573174447177577"><ele>63.0</ele><time>2026-03-24T16:18:47Z</time></trkpt><trkpt lat="45.04482195573412" lon="9.573267830214217"><ele>63.0</ele><time>2026-03-24T16:18:52Z</time></trkpt><trkpt lat="45.04485599992147" lon="9.573357626758604"><ele>63.0</ele><time>2026-03-24T16:18:57Z</time></trkpt><trkpt lat="45.04489116627678" lon="9.573438258437358"><ele>63.0</ele><time>2026-03-24T16:19:02Z</time></trkpt><trkpt lat="45.04491642872076" lon="9.573523063898486"><ele>63.0</ele><time>2026-03-24T16:19:07Z</time></trkpt><trkpt lat="45.04493193915349" lon="9.573625133963782"><ele>63.0</ele><time>2026-03-24T16:19:12Z</time></trkpt><trkpt lat="45.04496479140263" lon="9.57372950997913"><ele>63.0</ele><time>2026-03-24T16:19:17Z</time></trkpt><trkpt lat="45.04499945968291" lon="9.573832780786166"><ele>63.0</ele><time>2026-03-24T16:19:22Z</time></trkpt><trkpt lat="45.04503098784866" lon="9.573929910083999"><ele>63.0</ele><time>2026-03-24T16:19:27Z</time></trkpt><trkpt lat="45.045058264509734" lon="9.574010818935466"><ele>63.0</ele><time>2026-03-24T16:19:31Z</time></trkpt><trkpt lat="45.04508851359823" lon="9.574107956338882"><ele>63.14285714285714</ele><time>2026-03-24T16:19:36Z</time></trkpt><trkpt lat="45.04511388062075" lon="9.574198547703299"><ele>63.285714285714285</ele><time>2026-03-24T16:19:41Z</time></trkpt><trkpt lat="45.04513161953663" lon="9.574284787915788"><ele>63.42857142857143</ele><time>2026-03-24T16:19:46Z</time></trkpt><trkpt lat="45.04515200203079" lon="9.574378958864555"><ele>63.57142857142857</ele><time>2026-03-24T16:19:51Z</time></trkpt><trkpt lat="45.045192491356325" lon="9.574462424395865"><ele>63.71428571428571</ele><time>2026-03-24T16:19:56Z</time></trkpt><trkpt lat="45.04522572423" lon="9.57455454534919"><ele>63.857142857142854</ele><time>2026-03-24T16:20:01Z</time></trkpt><trkpt lat="45.0452345436958" lon="9.574659241552661"><ele>64.0</ele><time>2026-03-24T16:20:06Z</time></trkpt><trkpt lat="45.04526615690883" lon="9.57475409941223"><ele>64.0</ele><time>2026-03-24T16:20:11Z</time></trkpt><trkpt lat="45.04530571897378" lon="9.57484548217077"><ele>63.99999999999999</ele><time>2026-03-24T16:20:15.999Z</time></trkpt><trkpt lat="45.0453478997382" lon="9.574936675517554"><ele>64.0</ele><time>2026-03-24T16:20:21Z</time></trkpt><trkpt lat="45.045382896828556" lon="9.575026640070472"><ele>64.0</ele><time>2026-03-24T16:20:26Z</time></trkpt><trkpt lat="45.04541142385846" lon="9.575126081074458"><ele>63.99999999999999</ele><time>2026-03-24T16:20:31Z</time></trkpt><trkpt lat="45.045451632681214" lon="9.575195184538268"><ele>64.0</ele><time>2026-03-24T16:20:35Z</time></trkpt><trkpt lat="45.045489793623375" lon="9.57527461365456"><ele>64.0</ele><time>2026-03-24T16:20:40Z</time></trkpt><trkpt lat="45.04553709609942" lon="9.575355563324154"><ele>63.857142857142854</ele><time>2026-03-24T16:20:45Z</time></trkpt><trkpt lat="45.045570718537604" lon="9.575443204149025"><ele>63.71428571428571</ele><time>2026-03-24T16:20:50Z</time></trkpt><trkpt lat="45.04559921846086" lon="9.575540931474766"><ele>63.57142857142857</ele><time>2026-03-24T16:20:55Z</time></trkpt><trkpt lat="45.04563182450645" lon="9.575636020229402"><ele>63.42857142857143</ele><time>2026-03-24T16:21:00Z</time></trkpt><trkpt lat="45.04566036829434" lon="9.57573164398825"><ele>63.285714285714285</ele><time>2026-03-24T16:21:05Z</time></trkpt><trkpt lat="45.04569108114913" lon="9.575823565657792"><ele>63.14285714285714</ele><time>2026-03-24T16:21:10Z</time></trkpt><trkpt lat="45.04572296110001" lon="9.575916244945482"><ele>63.0</ele><time>2026-03-24T16:21:15Z</time></trkpt><trkpt lat="45.045758989545355" lon="9.576011678042232"><ele>63.0</ele><time>2026-03-24T16:21:20Z</time></trkpt><trkpt lat="45.04578734819899" lon="9.57610681378133"><ele>63.0</ele><time>2026-03-24T16:21:25Z</time></trkpt><trkpt lat="45.04581341492908" lon="9.576192595108479"><ele>63.0</ele><time>2026-03-24T16:21:30Z</time></trkpt><trkpt lat="45.04584125339095" lon="9.576292082922437"><ele>63.0</ele><time>2026-03-24T16:21:35Z</time></trkpt><trkpt lat="45.04587271153743" lon="9.576384665753848"><ele>63.0</ele><time>2026-03-24T16:21:40Z</time></trkpt><trkpt lat="45.0459016689727" lon="9.576479412061664"><ele>63.0</ele><time>2026-03-24T16:21:45Z</time></trkpt><trkpt lat="45.04593154499377" lon="9.576573588839237"><ele>63.0</ele><time>2026-03-24T16:21:50Z</time></trkpt><trkpt lat="45.045964336426486" lon="9.576666071098105"><ele>62.85714285714286</ele><time>2026-03-24T16:21:55Z</time></trkpt><trkpt lat="45.04599587781067" lon="9.57676174217852"><ele>62.714285714285715</ele><time>2026-03-24T16:22:00Z</time></trkpt><trkpt lat="45.04602582020461" lon="9.576855627174226"><ele>62.57142857142857</ele><time>2026-03-24T16:22:05Z</time></trkpt><trkpt lat="45.046055984430424" lon="9.576950478200827"><ele>62.42857142857143</ele><time>2026-03-24T16:22:09.999Z</time></trkpt><trkpt lat="45.04608575326817" lon="9.57704720925748"><ele>62.28571428571429</ele><time>2026-03-24T16:22:14.999Z</time></trkpt><trkpt lat="45.04611835206175" lon="9.577141536173027"><ele>62.142857142857146</ele><time>2026-03-24T16:22:19.999Z</time></trkpt><trkpt lat="45.04614686725298" lon="9.577237398859536"><ele>62.0</ele><time>2026-03-24T16:22:25Z</time></trkpt><trkpt lat="45.0461785550263" lon="9.577315941268596"><ele>62.0</ele><time>2026-03-24T16:22:29Z</time></trkpt><trkpt lat="45.04621043285213" lon="9.577416358199189"><ele>62.00000000000001</ele><time>2026-03-24T16:22:34Z</time></trkpt><trkpt lat="45.04623855977514" lon="9.577497159078348"><ele>62.0</ele><time>2026-03-24T16:22:38Z</time></trkpt><trkpt lat="45.04626724951391" lon="9.577593433992341"><ele>62.0</ele><time>2026-03-24T16:22:43Z</time></trkpt><trkpt lat="45.04629423488537" lon="9.577687428928012"><ele>62.00000000000001</ele><time>2026-03-24T16:22:48Z</time></trkpt><trkpt lat="45.04632306579471" lon="9.577783235365862"><ele>62.0</ele><time>2026-03-24T16:22:53Z</time></trkpt><trkpt lat="45.04635258355912" lon="9.577878118465952"><ele>62.0</ele><time>2026-03-24T16:22:58Z</time></trkpt><trkpt lat="45.04638252559356" lon="9.577976314728133"><ele>62.0</ele><time>2026-03-24T16:23:03Z</time></trkpt><trkpt lat="45.04641169263969" lon="9.578073658783412"><ele>62.00000000000001</ele><time>2026-03-24T16:23:08Z</time></trkpt><trkpt lat="45.046436614996054" lon="9.57817117929735"><ele>62.0</ele><time>2026-03-24T16:23:13Z</time></trkpt><trkpt lat="45.046465374130754" lon="9.578270340900886"><ele>62.0</ele><time>2026-03-24T16:23:18Z</time></trkpt><trkpt lat="45.04649430079574" lon="9.57837407001218"><ele>62.00000000000001</ele><time>2026-03-24T16:23:23Z</time></trkpt><trkpt lat="45.04651717544233" lon="9.578466898796124"><ele>62.0</ele><time>2026-03-24T16:23:28Z</time></trkpt><trkpt lat="45.04654717253384" lon="9.57855122398768"><ele>62.0</ele><time>2026-03-24T16:23:32Z</time></trkpt><trkpt lat="45.046575668278166" lon="9.578632411445206"><ele>62.0</ele><time>2026-03-24T16:23:36Z</time></trkpt><trkpt lat="45.046605842804695" lon="9.578730627904804"><ele>62.00000000000001</ele><time>2026-03-24T16:23:41Z</time></trkpt><trkpt lat="45.04663975723352" lon="9.578829138456081"><ele>62.0</ele><time>2026-03-24T16:23:46Z</time></trkpt><trkpt lat="45.04667379276176" lon="9.578930675406562"><ele>62.0</ele><time>2026-03-24T16:23:51Z</time></trkpt><trkpt lat="45.046705832267584" lon="9.579007975645647"><ele>62.00000000000001</ele><time>2026-03-24T16:23:55Z</time></trkpt><trkpt lat="45.04673522985407" lon="9.579087427914823"><ele>62.0</ele><time>2026-03-24T16:23:59Z</time></trkpt><trkpt lat="45.046772332724814" lon="9.579185075404435"><ele>62.0</ele><time>2026-03-24T16:24:04Z</time></trkpt><trkpt lat="45.04679902858221" lon="9.579285138667794"><ele>62.00000000000001</ele><time>2026-03-24T16:24:08.999Z</time></trkpt><trkpt lat="45.046844988277" lon="9.57937458509021"><ele>62.0</ele><time>2026-03-24T16:24:13.999Z</time></trkpt><trkpt lat="45.04688351829934" lon="9.579470024500928"><ele>62.0</ele><time>2026-03-24T16:24:18.999Z</time></trkpt><trkpt lat="45.04692081926147" lon="9.57956335927595"><ele>62.0</ele><time>2026-03-24T16:24:23.999Z</time></trkpt><trkpt lat="45.04695653054239" lon="9.579656593651327"><ele>62.00000000000001</ele><time>2026-03-24T16:24:28.999Z</time></trkpt><trkpt lat="45.046998089566195" lon="9.57974795432289"><ele>62.0</ele><time>2026-03-24T16:24:34Z</time></trkpt><trkpt lat="45.04703967886696" lon="9.579841475763516"><ele>62.0</ele><time>2026-03-24T16:24:39Z</time></trkpt><trkpt lat="45.04707782354016" lon="9.579913118227031"><ele>62.00000000000001</ele><time>2026-03-24T16:24:43Z</time></trkpt><trkpt lat="45.04711527230211" lon="9.580004383686951"><ele>62.0</ele><time>2026-03-24T16:24:48Z</time></trkpt><trkpt lat="45.04714635021712" lon="9.580082348141609"><ele>62.0</ele><time>2026-03-24T16:24:52Z</time></trkpt><trkpt lat="45.04718370009605" lon="9.58016826916016"><ele>62.00000000000001</ele><time>2026-03-24T16:24:57Z</time></trkpt><trkpt lat="45.047219736623944" lon="9.580246767384297"><ele>62.0</ele><time>2026-03-24T16:25:01Z</time></trkpt><trkpt lat="45.0472602528205" lon="9.580339286363056"><ele>62.0</ele><time>2026-03-24T16:25:06Z</time></trkpt><trkpt lat="45.04730030648835" lon="9.580432183637358"><ele>62.0</ele><time>2026-03-24T16:25:11Z</time></trkpt><trkpt lat="45.04733605217744" lon="9.580528168147538"><ele>62.00000000000001</ele><time>2026-03-24T16:25:16Z</time></trkpt><trkpt lat="45.04737802927507" lon="9.580614428458627"><ele>62.0</ele><time>2026-03-24T16:25:21Z</time></trkpt><trkpt lat="45.04742357880242" lon="9.580698875708634"><ele>62.0</ele><time>2026-03-24T16:25:26Z</time></trkpt><trkpt lat="45.04745958659959" lon="9.580780736222469"><ele>62.00000000000001</ele><time>2026-03-24T16:25:31Z</time></trkpt><trkpt lat="45.047493104027666" lon="9.58087029388917"><ele>62.0</ele><time>2026-03-24T16:25:36Z</time></trkpt><trkpt lat="45.04753014218009" lon="9.580958363196412"><ele>62.0</ele><time>2026-03-24T16:25:41Z</time></trkpt><trkpt lat="45.04756401279476" lon="9.581049193904073"><ele>62.0</ele><time>2026-03-24T16:25:46Z</time></trkpt><trkpt lat="45.04760774342796" lon="9.581136029381172"><ele>62.00000000000001</ele><time>2026-03-24T16:25:51Z</time></trkpt><trkpt lat="45.04764494051922" lon="9.581222290387327"><ele>62.0</ele><time>2026-03-24T16:25:56Z</time></trkpt><trkpt lat="45.047681959010276" lon="9.581310889923243"><ele>62.0</ele><time>2026-03-24T16:26:01Z</time></trkpt><trkpt lat="45.04771222144991" lon="9.581395027469807"><ele>62.00000000000001</ele><time>2026-03-24T16:26:06Z</time></trkpt><trkpt lat="45.04773888999201" lon="9.581486470006928"><ele>62.0</ele><time>2026-03-24T16:26:11Z</time></trkpt><trkpt lat="45.04776685465947" lon="9.581571803450288"><ele>62.0</ele><time>2026-03-24T16:26:16Z</time></trkpt><trkpt lat="45.04780419922267" lon="9.581675036961233"><ele>62.142857142857146</ele><time>2026-03-24T16:26:22Z</time></trkpt><trkpt lat="45.04783559212319" lon="9.581754901647338"><ele>62.28571428571429</ele><time>2026-03-24T16:26:26.999Z</time></trkpt><trkpt lat="45.04787064490813" lon="9.581829005529896"><ele>62.42857142857143</ele><time>2026-03-24T16:26:30.999Z</time></trkpt><trkpt lat="45.047913351011005" lon="9.581903649103465"><ele>62.57142857142857</ele><time>2026-03-24T16:26:34.999Z</time></trkpt><trkpt lat="45.04795141825446" lon="9.58198930181942"><ele>62.714285714285715</ele><time>2026-03-24T16:26:39.999Z</time></trkpt><trkpt lat="45.04798044956536" lon="9.582085188024834"><ele>62.85714285714286</ele><time>2026-03-24T16:27:03.999Z</time></trkpt><trkpt lat="45.04801785263336" lon="9.582174401952082"><ele>63.0</ele><time>2026-03-24T16:27:09.999Z</time></trkpt><trkpt lat="45.04805319808943" lon="9.582267272513747"><ele>63.0</ele><time>2026-03-24T16:27:15.999Z</time></trkpt><trkpt lat="45.04808762967574" lon="9.582352405954106"><ele>63.0</ele><time>2026-03-24T16:27:20.999Z</time></trkpt><trkpt lat="45.04812917192763" lon="9.58242505804107"><ele>63.0</ele><time>2026-03-24T16:27:24.999Z</time></trkpt><trkpt lat="45.048169245767276" lon="9.582510255463301"><ele>63.0</ele><time>2026-03-24T16:27:29.999Z</time></trkpt><trkpt lat="45.0481890547112" lon="9.582595840538136"><ele>63.0</ele><time>2026-03-24T16:27:33.999Z</time></trkpt><trkpt lat="45.04822270692269" lon="9.582690318489643"><ele>63.0</ele><time>2026-03-24T16:27:37.999Z</time></trkpt><trkpt lat="45.04824531000013" lon="9.582780722538931"><ele>63.0</ele><time>2026-03-24T16:27:41.999Z</time></trkpt><trkpt lat="45.04828052572797" lon="9.582860726303222"><ele>62.85714285714286</ele><time>2026-03-24T16:27:45.999Z</time></trkpt><trkpt lat="45.04831507188527" lon="9.582940637928914"><ele>62.714285714285715</ele><time>2026-03-24T16:27:49.999Z</time></trkpt><trkpt lat="45.0483544941381" lon="9.583019023417569"><ele>62.57142857142857</ele><time>2026-03-24T16:27:54.999Z</time></trkpt><trkpt lat="45.048351782233574" lon="9.583116445218108"><ele>62.42857142857143</ele><time>2026-03-24T16:27:59.999Z</time></trkpt><trkpt lat="45.04837492828028" lon="9.583199801381141"><ele>62.28571428571429</ele><time>2026-03-24T16:28:06.999Z</time></trkpt><trkpt lat="45.048408383817446" lon="9.583287262367941"><ele>62.142857142857146</ele><time>2026-03-24T16:28:10.999Z</time></trkpt><trkpt lat="45.04843931164546" lon="9.583370572749146"><ele>62.0</ele><time>2026-03-24T16:28:14.999Z</time></trkpt><trkpt lat="45.048473354789515" lon="9.583462279891217"><ele>62.0</ele><time>2026-03-24T16:28:19.999Z</time></trkpt><trkpt lat="45.04851597404868" lon="9.5835468188472"><ele>62.00000000000001</ele><time>2026-03-24T16:28:24.999Z</time></trkpt><trkpt lat="45.04854987567851" lon="9.583632253567837"><ele>62.0</ele><time>2026-03-24T16:28:29.999Z</time></trkpt><trkpt lat="45.04859267802125" lon="9.583719320736199"><ele>62.0</ele><time>2026-03-24T16:28:34.999Z</time></trkpt><trkpt lat="45.04863446366562" lon="9.583788141680069"><ele>62.00000000000001</ele><time>2026-03-24T16:28:39.999Z</time></trkpt><trkpt lat="45.04866756440369" lon="9.583884880288547"><ele>62.0</ele><time>2026-03-24T16:28:45Z</time></trkpt><trkpt lat="45.04870843073243" lon="9.583964954774915"><ele>62.0</ele><time>2026-03-24T16:28:50Z</time></trkpt><trkpt lat="45.04875627510129" lon="9.5840245955453"><ele>62.0</ele><time>2026-03-24T16:28:54Z</time></trkpt><trkpt lat="45.04879884344897" lon="9.58411294853171"><ele>62.00000000000001</ele><time>2026-03-24T16:28:59Z</time></trkpt><trkpt lat="45.04883659898484" lon="9.584189344450767"><ele>62.0</ele><time>2026-03-24T16:29:03Z</time></trkpt><trkpt lat="45.04886570762659" lon="9.58428958758666"><ele>62.0</ele><time>2026-03-24T16:29:08Z</time></trkpt><trkpt lat="45.04888897269399" lon="9.58437344177772"><ele>62.00000000000001</ele><time>2026-03-24T16:29:13Z</time></trkpt><trkpt lat="45.04892552900168" lon="9.584464756079823"><ele>62.0</ele><time>2026-03-24T16:29:18Z</time></trkpt><trkpt lat="45.048942944336716" lon="9.584558172785401"><ele>62.0</ele><time>2026-03-24T16:29:22Z</time></trkpt><trkpt lat="45.04897983575087" lon="9.58463995589712"><ele>62.142857142857146</ele><time>2026-03-24T16:29:26Z</time></trkpt><trkpt lat="45.0490229529008" lon="9.584705335424852"><ele>62.28571428571429</ele><time>2026-03-24T16:29:30Z</time></trkpt><trkpt lat="45.049058181931166" lon="9.584805205795803"><ele>62.42857142857143</ele><time>2026-03-24T16:29:35Z</time></trkpt><trkpt lat="45.049093476072834" lon="9.584881282964357"><ele>62.57142857142857</ele><time>2026-03-24T16:29:40Z</time></trkpt><trkpt lat="45.04912910676952" lon="9.584967536611575"><ele>62.714285714285715</ele><time>2026-03-24T16:29:44Z</time></trkpt><trkpt lat="45.049162350482554" lon="9.585048971497027"><ele>62.85714285714286</ele><time>2026-03-24T16:29:48Z</time></trkpt><trkpt lat="45.04919508283721" lon="9.585127708832696"><ele>63.0</ele><time>2026-03-24T16:29:52Z</time></trkpt><trkpt lat="45.049226095129576" lon="9.585227010620908"><ele>62.85714285714286</ele><time>2026-03-24T16:29:57Z</time></trkpt><trkpt lat="45.04926816287173" lon="9.585314317688008"><ele>62.714285714285715</ele><time>2026-03-24T16:30:02Z</time></trkpt><trkpt lat="45.04931170217984" lon="9.585399632765169"><ele>62.57142857142857</ele><time>2026-03-24T16:30:07Z</time></trkpt><trkpt lat="45.049338803868494" lon="9.585483896145528"><ele>62.42857142857143</ele><time>2026-03-24T16:30:11Z</time></trkpt><trkpt lat="45.04937694004976" lon="9.585575611117505"><ele>62.28571428571429</ele><time>2026-03-24T16:30:16Z</time></trkpt><trkpt lat="45.04940967190525" lon="9.585655894960487"><ele>62.142857142857146</ele><time>2026-03-24T16:30:20Z</time></trkpt><trkpt lat="45.04945067475016" lon="9.585745889278456"><ele>62.0</ele><time>2026-03-24T16:30:25Z</time></trkpt><trkpt lat="45.0494829837469" lon="9.585841342901283"><ele>62.0</ele><time>2026-03-24T16:30:30Z</time></trkpt><trkpt lat="45.04953067870781" lon="9.585927124819245"><ele>62.00000000000001</ele><time>2026-03-24T16:30:35Z</time></trkpt><trkpt lat="45.04956403472296" lon="9.58600359294372"><ele>62.0</ele><time>2026-03-24T16:30:39Z</time></trkpt><trkpt lat="45.04961232336887" lon="9.586061521101724"><ele>62.0</ele><time>2026-03-24T16:30:43Z</time></trkpt><trkpt lat="45.04965863020499" lon="9.58612519239743"><ele>62.00000000000001</ele><time>2026-03-24T16:30:47Z</time></trkpt><trkpt lat="45.04970313713194" lon="9.586192079330283"><ele>62.0</ele><time>2026-03-24T16:30:51.001Z</time></trkpt><trkpt lat="45.04975690480282" lon="9.586272027032146"><ele>62.0</ele><time>2026-03-24T16:30:56.001Z</time></trkpt><trkpt lat="45.04980128834008" lon="9.586338513563994"><ele>61.85714285714286</ele><time>2026-03-24T16:31:00.001Z</time></trkpt><trkpt lat="45.049861356195414" lon="9.586412285964682"><ele>61.71428571428572</ele><time>2026-03-24T16:31:05.001Z</time></trkpt><trkpt lat="45.04991337339437" lon="9.586493970792091"><ele>61.57142857142857</ele><time>2026-03-24T16:31:10Z</time></trkpt><trkpt lat="45.049977584760434" lon="9.586540973144631"><ele>61.42857142857143</ele><time>2026-03-24T16:31:15Z</time></trkpt><trkpt lat="45.050033576376215" lon="9.586593033836177"><ele>61.285714285714285</ele><time>2026-03-24T16:31:19Z</time></trkpt><trkpt lat="45.05008225363733" lon="9.586655727175014"><ele>61.14285714285714</ele><time>2026-03-24T16:31:24Z</time></trkpt><trkpt lat="45.0501316225596" lon="9.586729736197377"><ele>60.99999999999999</ele><time>2026-03-24T16:31:29Z</time></trkpt><trkpt lat="45.05017648256433" lon="9.586797666260377"><ele>60.85714285714285</ele><time>2026-03-24T16:31:34Z</time></trkpt><trkpt lat="45.050223236586135" lon="9.586860150275854"><ele>60.71428571428571</ele><time>2026-03-24T16:31:38Z</time></trkpt><trkpt lat="45.050271565493745" lon="9.586941572686802"><ele>60.57142857142857</ele><time>2026-03-24T16:31:43Z</time></trkpt><trkpt lat="45.05032867795088" lon="9.587011028930888"><ele>60.42857142857142</ele><time>2026-03-24T16:31:48Z</time></trkpt><trkpt lat="45.05038011533621" lon="9.587062484755911"><ele>60.28571428571428</ele><time>2026-03-24T16:31:52Z</time></trkpt><trkpt lat="45.05042306318596" lon="9.587147493041309"><ele>60.142857142857146</ele><time>2026-03-24T16:31:57Z</time></trkpt><trkpt lat="45.05047583179362" lon="9.587220388537295"><ele>60.0</ele><time>2026-03-24T16:32:02Z</time></trkpt><trkpt lat="45.05053714001305" lon="9.58728856370579"><ele>60.142857142857146</ele><time>2026-03-24T16:32:07Z</time></trkpt><trkpt lat="45.05057982423966" lon="9.587362065719619"><ele>60.28571428571428</ele><time>2026-03-24T16:32:11Z</time></trkpt><trkpt lat="45.05062071836005" lon="9.587435903443527"><ele>60.42857142857142</ele><time>2026-03-24T16:32:15Z</time></trkpt><trkpt lat="45.05067473686672" lon="9.587507026853245"><ele>60.57142857142857</ele><time>2026-03-24T16:32:20Z</time></trkpt><trkpt lat="45.050737867439864" lon="9.58755992166206"><ele>60.71428571428571</ele><time>2026-03-24T16:32:25Z</time></trkpt><trkpt lat="45.05078970718" lon="9.587620946010396"><ele>60.85714285714285</ele><time>2026-03-24T16:32:30Z</time></trkpt><trkpt lat="45.050845317777544" lon="9.587684971149008"><ele>60.99999999999999</ele><time>2026-03-24T16:32:35Z</time></trkpt><trkpt lat="45.0508993874541" lon="9.587756749014297"><ele>60.99999999999999</ele><time>2026-03-24T16:32:40Z</time></trkpt><trkpt lat="45.050939199876545" lon="9.587832255559118"><ele>61.0</ele><time>2026-03-24T16:32:45Z</time></trkpt><trkpt lat="45.05099040804665" lon="9.587889907081204"><ele>60.99999999999999</ele><time>2026-03-24T16:32:49Z</time></trkpt><trkpt lat="45.051043851335294" lon="9.587966584993282"><ele>60.99999999999999</ele><time>2026-03-24T16:32:54Z</time></trkpt><trkpt lat="45.05110541449867" lon="9.588040885652216"><ele>61.0</ele><time>2026-03-24T16:32:59Z</time></trkpt><trkpt lat="45.05115907400578" lon="9.588115929639505"><ele>60.99999999999999</ele><time>2026-03-24T16:33:04Z</time></trkpt><trkpt lat="45.051215041008426" lon="9.588190016621208"><ele>60.99999999999999</ele><time>2026-03-24T16:33:09Z</time></trkpt><trkpt lat="45.051268962617" lon="9.588260571642644"><ele>60.99999999999999</ele><time>2026-03-24T16:33:14Z</time></trkpt><trkpt lat="45.051325239763635" lon="9.588331421434814"><ele>61.0</ele><time>2026-03-24T16:33:19Z</time></trkpt><trkpt lat="45.051373780258416" lon="9.588403232088123"><ele>60.99999999999999</ele><time>2026-03-24T16:33:24Z</time></trkpt><trkpt lat="45.05142551355446" lon="9.588464384633896"><ele>60.99999999999999</ele><time>2026-03-24T16:33:29Z</time></trkpt><trkpt lat="45.05148148349566" lon="9.58854092792662"><ele>61.0</ele><time>2026-03-24T16:33:34Z</time></trkpt><trkpt lat="45.051526017455295" lon="9.588614423237813"><ele>60.99999999999999</ele><time>2026-03-24T16:33:38Z</time></trkpt><trkpt lat="45.05155504600744" lon="9.588700024119438"><ele>60.99999999999999</ele><time>2026-03-24T16:33:42Z</time></trkpt><trkpt lat="45.05159417548885" lon="9.588779271212461"><ele>60.99999999999999</ele><time>2026-03-24T16:33:46Z</time></trkpt><trkpt lat="45.05162843774546" lon="9.588874578920816"><ele>61.0</ele><time>2026-03-24T16:33:51Z</time></trkpt><trkpt lat="45.05165208017056" lon="9.588962083256702"><ele>60.99999999999999</ele><time>2026-03-24T16:33:55Z</time></trkpt><trkpt lat="45.05166576784434" lon="9.589070128638182"><ele>60.99999999999999</ele><time>2026-03-24T16:34:00Z</time></trkpt><trkpt lat="45.05171065348384" lon="9.589142272164557"><ele>61.0</ele><time>2026-03-24T16:34:04Z</time></trkpt><trkpt lat="45.05175183864535" lon="9.589232252713959"><ele>60.99999999999999</ele><time>2026-03-24T16:34:09Z</time></trkpt><trkpt lat="45.05179110340146" lon="9.589304517143397"><ele>60.99999999999999</ele><time>2026-03-24T16:34:13Z</time></trkpt><trkpt lat="45.05178553746734" lon="9.589403392807734"><ele>60.99999999999999</ele><time>2026-03-24T16:34:17Z</time></trkpt><trkpt lat="45.051778824200106" lon="9.589505291170559"><ele>61.0</ele><time>2026-03-24T16:34:21Z</time></trkpt><trkpt lat="45.05181085473024" lon="9.58958898463157"><ele>60.99999999999999</ele><time>2026-03-24T16:34:25Z</time></trkpt><trkpt lat="45.051816956243584" lon="9.58969972391761"><ele>60.99999999999999</ele><time>2026-03-24T16:34:30Z</time></trkpt><trkpt lat="45.05183016451083" lon="9.589806587619071"><ele>61.0</ele><time>2026-03-24T16:34:35Z</time></trkpt><trkpt lat="45.0518388236593" lon="9.589900754067388"><ele>60.99999999999999</ele><time>2026-03-24T16:34:39Z</time></trkpt><trkpt lat="45.051856106773094" lon="9.590003219649596"><ele>60.99999999999999</ele><time>2026-03-24T16:34:44Z</time></trkpt><trkpt lat="45.05184237208466" lon="9.590099344656313"><ele>61.14285714285714</ele><time>2026-03-24T16:34:48Z</time></trkpt><trkpt lat="45.05187040343761" lon="9.590192117435842"><ele>61.285714285714285</ele><time>2026-03-24T16:34:51.999Z</time></trkpt><trkpt lat="45.05187604278867" lon="9.590294055239207"><ele>61.42857142857143</ele><time>2026-03-24T16:34:56.999Z</time></trkpt><trkpt lat="45.0518895580659" lon="9.590388103296172"><ele>61.57142857142857</ele><time>2026-03-24T16:35:01Z</time></trkpt><trkpt lat="45.05191257835351" lon="9.590494888585447"><ele>61.71428571428572</ele><time>2026-03-24T16:35:06Z</time></trkpt><trkpt lat="45.05192773590975" lon="9.590605320615175"><ele>61.85714285714286</ele><time>2026-03-24T16:35:11Z</time></trkpt><trkpt lat="45.05194220596162" lon="9.590702043305253"><ele>62.0</ele><time>2026-03-24T16:35:16Z</time></trkpt><trkpt lat="45.05194158374853" lon="9.59081434378099"><ele>62.0</ele><time>2026-03-24T16:35:21Z</time></trkpt><trkpt lat="45.05195440722557" lon="9.590903806874602"><ele>62.00000000000001</ele><time>2026-03-24T16:35:25Z</time></trkpt><trkpt lat="45.05195999465011" lon="9.590993226970438"><ele>62.0</ele><time>2026-03-24T16:35:29Z</time></trkpt><trkpt lat="45.05196906511433" lon="9.591089410726404"><ele>62.0</ele><time>2026-03-24T16:35:33Z</time></trkpt><trkpt lat="45.051975733112066" lon="9.59117959940785"><ele>62.00000000000001</ele><time>2026-03-24T16:35:37Z</time></trkpt><trkpt lat="45.05200502434313" lon="9.591266049517005"><ele>62.0</ele><time>2026-03-24T16:35:41Z</time></trkpt><trkpt lat="45.052024705933526" lon="9.591372064270493"><ele>62.0</ele><time>2026-03-24T16:35:46Z</time></trkpt><trkpt lat="45.0520299887861" lon="9.591481269613928"><ele>62.0</ele><time>2026-03-24T16:35:51Z</time></trkpt><trkpt lat="45.05204171866304" lon="9.591570393286077"><ele>62.00000000000001</ele><time>2026-03-24T16:35:55Z</time></trkpt><trkpt lat="45.052051008994404" lon="9.591662055808188"><ele>62.0</ele><time>2026-03-24T16:35:59Z</time></trkpt><trkpt lat="45.05206229496465" lon="9.591771624107391"><ele>62.0</ele><time>2026-03-24T16:36:04Z</time></trkpt><trkpt lat="45.052068394019514" lon="9.59188092060884"><ele>62.00000000000001</ele><time>2026-03-24T16:36:09Z</time></trkpt><trkpt lat="45.05208552928658" lon="9.591986622620052"><ele>62.0</ele><time>2026-03-24T16:36:14Z</time></trkpt><trkpt lat="45.05209700077616" lon="9.592092805871161"><ele>62.0</ele><time>2026-03-24T16:36:18Z</time></trkpt><trkpt lat="45.05211194006301" lon="9.592190103708836"><ele>61.714285714285715</ele><time>2026-03-24T16:36:23Z</time></trkpt><trkpt lat="45.05211608363286" lon="9.592286021844266"><ele>61.42857142857143</ele><time>2026-03-24T16:36:26.999Z</time></trkpt><trkpt lat="45.052106947405946" lon="9.592394094295868"><ele>61.142857142857146</ele><time>2026-03-24T16:36:31.999Z</time></trkpt><trkpt lat="45.05214260006999" lon="9.592479060670287"><ele>60.85714285714286</ele><time>2026-03-24T16:36:36.999Z</time></trkpt><trkpt lat="45.052155189835936" lon="9.59257773984789"><ele>60.57142857142857</ele><time>2026-03-24T16:36:41.999Z</time></trkpt><trkpt lat="45.05215923259718" lon="9.592680394642043"><ele>60.28571428571429</ele><time>2026-03-24T16:36:46.999Z</time></trkpt><trkpt lat="45.052156906896386" lon="9.592782625509471"><ele>60.0</ele><time>2026-03-24T16:36:51.999Z</time></trkpt><trkpt lat="45.05215589002443" lon="9.592883211688616"><ele>59.85714285714286</ele><time>2026-03-24T16:36:56.999Z</time></trkpt><trkpt lat="45.052153610325554" lon="9.59297292830651"><ele>59.71428571428571</ele><time>2026-03-24T16:37:01.999Z</time></trkpt><trkpt lat="45.0521602717298" lon="9.593067939463532"><ele>59.57142857142857</ele><time>2026-03-24T16:37:07Z</time></trkpt><trkpt lat="45.05215188656741" lon="9.593165312111683"><ele>59.42857142857143</ele><time>2026-03-24T16:37:12Z</time></trkpt><trkpt lat="45.052154743168146" lon="9.593270595482315"><ele>59.28571428571429</ele><time>2026-03-24T16:37:16Z</time></trkpt><trkpt lat="45.052150399381645" lon="9.593374379019012"><ele>59.14285714285714</ele><time>2026-03-24T16:37:20Z</time></trkpt><trkpt lat="45.05214814581803" lon="9.59346371784101"><ele>59.0</ele><time>2026-03-24T16:37:24Z</time></trkpt><trkpt lat="45.05214648624864" lon="9.593571265632672"><ele>59.0</ele><time>2026-03-24T16:37:29Z</time></trkpt><trkpt lat="45.052151053451496" lon="9.593676827251215"><ele>59.0</ele><time>2026-03-24T16:37:34Z</time></trkpt><trkpt lat="45.05214499461683" lon="9.593772153935676"><ele>59.0</ele><time>2026-03-24T16:37:38Z</time></trkpt><trkpt lat="45.05212085753755" lon="9.59386315344915"><ele>59.0</ele><time>2026-03-24T16:37:43Z</time></trkpt><trkpt lat="45.052106961147075" lon="9.593951019093641"><ele>59.0</ele><time>2026-03-24T16:37:47Z</time></trkpt><trkpt lat="45.052101717877214" lon="9.594064569480004"><ele>59.0</ele><time>2026-03-24T16:37:52Z</time></trkpt><trkpt lat="45.05210343488659" lon="9.594159437290998"><ele>59.0</ele><time>2026-03-24T16:37:56Z</time></trkpt><trkpt lat="45.0521031208696" lon="9.594249295155004"><ele>59.0</ele><time>2026-03-24T16:38:00Z</time></trkpt><trkpt lat="45.052092818228786" lon="9.594344434861991"><ele>59.0</ele><time>2026-03-24T16:38:04Z</time></trkpt><trkpt lat="45.052085698943706" lon="9.594453529552638"><ele>59.0</ele><time>2026-03-24T16:38:09Z</time></trkpt><trkpt lat="45.05208547056405" lon="9.594561218443392"><ele>59.0</ele><time>2026-03-24T16:38:14Z</time></trkpt><trkpt lat="45.05208416905053" lon="9.594650498426477"><ele>59.0</ele><time>2026-03-24T16:38:18Z</time></trkpt><trkpt lat="45.0520650445315" lon="9.594746122045974"><ele>59.0</ele><time>2026-03-24T16:38:23Z</time></trkpt><trkpt lat="45.05207345105123" lon="9.594840171420236"><ele>59.0</ele><time>2026-03-24T16:38:27Z</time></trkpt><trkpt lat="45.05206638658624" lon="9.594948305831155"><ele>59.14285714285714</ele><time>2026-03-24T16:38:32Z</time></trkpt><trkpt lat="45.0520860348351" lon="9.59504078628012"><ele>59.28571428571429</ele><time>2026-03-24T16:38:36Z</time></trkpt><trkpt lat="45.05208460099626" lon="9.595138775474236"><ele>59.42857142857143</ele><time>2026-03-24T16:38:40Z</time></trkpt><trkpt lat="45.05208672402033" lon="9.595241510465897"><ele>59.57142857142857</ele><time>2026-03-24T16:38:45Z</time></trkpt><trkpt lat="45.052079293592136" lon="9.595353639102566"><ele>59.71428571428571</ele><time>2026-03-24T16:38:49.999Z</time></trkpt><trkpt lat="45.052067437578266" lon="9.595453072679009"><ele>59.85714285714286</ele><time>2026-03-24T16:38:53.999Z</time></trkpt><trkpt lat="45.05208572332538" lon="9.595541951163389"><ele>60.0</ele><time>2026-03-24T16:38:57.999Z</time></trkpt><trkpt lat="45.05208342639483" lon="9.595650510485108"><ele>60.0</ele><time>2026-03-24T16:39:02.999Z</time></trkpt><trkpt lat="45.052084015658906" lon="9.59574217003789"><ele>60.0</ele><time>2026-03-24T16:39:06.999Z</time></trkpt></trkseg></trk></gpx>